<?xml version="1.0" encoding="UTF-8" standalone="no" ?>
<gpx xmlns="http://www.topografix.com/GPX/1/1" xmlns:xsi="http://www.w3.org/2001/XMLSchema-instance" xsi:schemaLocation="http://www.topografix.com/GPX/1/1 http://www.topografix.com/GPX/1/1/gpx.xsd" version="1.1" creator="VisuGPX - https://www.visugpx.com">
  <metadata>
    <name>TraildesGlaisins</name>
    <desc><![CDATA[Trail des Glaisins 2012]]></desc>
  </metadata>
  <trk>
    <name><![CDATA[Trail_des_glaisins on GPSies.com]]></name>
    <trkseg>
      <trkpt lat="45.92632" lon="6.15603">
        <ele>538</ele>
        <time>2010-01-01T00:00:00Z</time>
      </trkpt>
      <trkpt lat="45.9261" lon="6.15644">
        <ele>539</ele>
        <time>2010-01-01T00:00:14Z</time>
      </trkpt>
      <trkpt lat="45.92595" lon="6.15681">
        <ele>540</ele>
        <time>2010-01-01T00:00:26Z</time>
      </trkpt>
      <trkpt lat="45.92609" lon="6.1572">
        <ele>541</ele>
        <time>2010-01-01T00:00:38Z</time>
      </trkpt>
      <trkpt lat="45.9267" lon="6.15722">
        <ele>541</ele>
        <time>2010-01-01T00:01:03Z</time>
      </trkpt>
      <trkpt lat="45.92711" lon="6.15752">
        <ele>540</ele>
        <time>2010-01-01T00:01:21Z</time>
      </trkpt>
      <trkpt lat="45.92763" lon="6.1582">
        <ele>540</ele>
        <time>2010-01-01T00:01:49Z</time>
      </trkpt>
      <trkpt lat="45.92802" lon="6.15782">
        <ele>538</ele>
        <time>2010-01-01T00:02:08Z</time>
      </trkpt>
      <trkpt lat="45.92839" lon="6.15841">
        <ele>536</ele>
        <time>2010-01-01T00:02:31Z</time>
      </trkpt>
      <trkpt lat="45.92867" lon="6.15815">
        <ele>535</ele>
        <time>2010-01-01T00:02:44Z</time>
      </trkpt>
      <trkpt lat="45.92904" lon="6.15789">
        <ele>533</ele>
        <time>2010-01-01T00:03:00Z</time>
      </trkpt>
      <trkpt lat="45.92962" lon="6.15814">
        <ele>531</ele>
        <time>2010-01-01T00:03:24Z</time>
      </trkpt>
      <trkpt lat="45.92986" lon="6.1585">
        <ele>531</ele>
        <time>2010-01-01T00:03:38Z</time>
      </trkpt>
      <trkpt lat="45.93" lon="6.15885">
        <ele>531</ele>
        <time>2010-01-01T00:03:50Z</time>
      </trkpt>
      <trkpt lat="45.93038" lon="6.15905">
        <ele>529</ele>
        <time>2010-01-01T00:04:06Z</time>
      </trkpt>
      <trkpt lat="45.93065" lon="6.15914">
        <ele>529</ele>
        <time>2010-01-01T00:04:17Z</time>
      </trkpt>
      <trkpt lat="45.93088" lon="6.15942">
        <ele>528</ele>
        <time>2010-01-01T00:04:29Z</time>
      </trkpt>
      <trkpt lat="45.93101" lon="6.15947">
        <ele>528</ele>
        <time>2010-01-01T00:04:34Z</time>
      </trkpt>
      <trkpt lat="45.93154" lon="6.15944">
        <ele>526</ele>
        <time>2010-01-01T00:04:56Z</time>
      </trkpt>
      <trkpt lat="45.93159" lon="6.15939">
        <ele>526</ele>
        <time>2010-01-01T00:04:58Z</time>
      </trkpt>
      <trkpt lat="45.93176" lon="6.15933">
        <ele>525</ele>
        <time>2010-01-01T00:05:05Z</time>
      </trkpt>
      <trkpt lat="45.93221" lon="6.15915">
        <ele>523</ele>
        <time>2010-01-01T00:05:24Z</time>
      </trkpt>
      <trkpt lat="45.93271" lon="6.1588">
        <ele>520</ele>
        <time>2010-01-01T00:05:46Z</time>
      </trkpt>
      <trkpt lat="45.93279" lon="6.15813">
        <ele>519</ele>
        <time>2010-01-01T00:06:05Z</time>
      </trkpt>
      <trkpt lat="45.9325" lon="6.15717">
        <ele>519</ele>
        <time>2010-01-01T00:06:34Z</time>
      </trkpt>
      <trkpt lat="45.93208" lon="6.1565">
        <ele>520</ele>
        <time>2010-01-01T00:07:00Z</time>
      </trkpt>
      <trkpt lat="45.93216" lon="6.15558">
        <ele>523</ele>
        <time>2010-01-01T00:07:25Z</time>
      </trkpt>
      <trkpt lat="45.93268" lon="6.15585">
        <ele>520</ele>
        <time>2010-01-01T00:07:48Z</time>
      </trkpt>
      <trkpt lat="45.93353" lon="6.15619">
        <ele>514</ele>
        <time>2010-01-01T00:08:23Z</time>
      </trkpt>
      <trkpt lat="45.934" lon="6.1565">
        <ele>510</ele>
        <time>2010-01-01T00:08:44Z</time>
      </trkpt>
      <trkpt lat="45.93403" lon="6.15732">
        <ele>510</ele>
        <time>2010-01-01T00:09:07Z</time>
      </trkpt>
      <trkpt lat="45.93435" lon="6.15822">
        <ele>509</ele>
        <time>2010-01-01T00:09:35Z</time>
      </trkpt>
      <trkpt lat="45.9348" lon="6.15898">
        <ele>508</ele>
        <time>2010-01-01T00:10:03Z</time>
      </trkpt>
      <trkpt lat="45.93533" lon="6.16">
        <ele>510</ele>
        <time>2010-01-01T00:10:38Z</time>
      </trkpt>
      <trkpt lat="45.93564" lon="6.16068">
        <ele>513</ele>
        <time>2010-01-01T00:11:01Z</time>
      </trkpt>
      <trkpt lat="45.93599" lon="6.16106">
        <ele>515</ele>
        <time>2010-01-01T00:11:19Z</time>
      </trkpt>
      <trkpt lat="45.93618" lon="6.16121">
        <ele>516</ele>
        <time>2010-01-01T00:11:27Z</time>
      </trkpt>
      <trkpt lat="45.93665" lon="6.16139">
        <ele>516</ele>
        <time>2010-01-01T00:11:47Z</time>
      </trkpt>
      <trkpt lat="45.93711" lon="6.16161">
        <ele>514</ele>
        <time>2010-01-01T00:12:06Z</time>
      </trkpt>
      <trkpt lat="45.93706" lon="6.16238">
        <ele>518</ele>
        <time>2010-01-01T00:12:27Z</time>
      </trkpt>
      <trkpt lat="45.93626" lon="6.16405">
        <ele>517</ele>
        <time>2010-01-01T00:13:24Z</time>
      </trkpt>
      <trkpt lat="45.93572" lon="6.1653">
        <ele>515</ele>
        <time>2010-01-01T00:14:05Z</time>
      </trkpt>
      <trkpt lat="45.93545" lon="6.16659">
        <ele>517</ele>
        <time>2010-01-01T00:14:42Z</time>
      </trkpt>
      <trkpt lat="45.93547" lon="6.16699">
        <ele>518</ele>
        <time>2010-01-01T00:14:53Z</time>
      </trkpt>
      <trkpt lat="45.93601" lon="6.16702">
        <ele>503</ele>
        <time>2010-01-01T00:15:15Z</time>
      </trkpt>
      <trkpt lat="45.93592" lon="6.16658">
        <ele>506</ele>
        <time>2010-01-01T00:15:28Z</time>
      </trkpt>
      <trkpt lat="45.93584" lon="6.16704">
        <ele>509</ele>
        <time>2010-01-01T00:15:41Z</time>
      </trkpt>
      <trkpt lat="45.93571" lon="6.16936">
        <ele>530</ele>
        <time>2010-01-01T00:16:46Z</time>
      </trkpt>
      <trkpt lat="45.93526" lon="6.17055">
        <ele>538</ele>
        <time>2010-01-01T00:17:24Z</time>
      </trkpt>
      <trkpt lat="45.93515" lon="6.17113">
        <ele>537</ele>
        <time>2010-01-01T00:17:40Z</time>
      </trkpt>
      <trkpt lat="45.93554" lon="6.17109">
        <ele>531</ele>
        <time>2010-01-01T00:17:56Z</time>
      </trkpt>
      <trkpt lat="45.93585" lon="6.17102">
        <ele>526</ele>
        <time>2010-01-01T00:18:08Z</time>
      </trkpt>
      <trkpt lat="45.93618" lon="6.1705">
        <ele>521</ele>
        <time>2010-01-01T00:18:28Z</time>
      </trkpt>
      <trkpt lat="45.93642" lon="6.17007">
        <ele>512</ele>
        <time>2010-01-01T00:18:43Z</time>
      </trkpt>
      <trkpt lat="45.93663" lon="6.17038">
        <ele>506</ele>
        <time>2010-01-01T00:18:56Z</time>
      </trkpt>
      <trkpt lat="45.9367" lon="6.17078">
        <ele>506</ele>
        <time>2010-01-01T00:19:07Z</time>
      </trkpt>
      <trkpt lat="45.93687" lon="6.1709">
        <ele>500</ele>
        <time>2010-01-01T00:19:15Z</time>
      </trkpt>
      <trkpt lat="45.93697" lon="6.17095">
        <ele>495</ele>
        <time>2010-01-01T00:19:19Z</time>
      </trkpt>
      <trkpt lat="45.93718" lon="6.17091">
        <ele>488</ele>
        <time>2010-01-01T00:19:27Z</time>
      </trkpt>
      <trkpt lat="45.93733" lon="6.1708">
        <ele>483</ele>
        <time>2010-01-01T00:19:34Z</time>
      </trkpt>
      <trkpt lat="45.93761" lon="6.17074">
        <ele>477</ele>
        <time>2010-01-01T00:19:46Z</time>
      </trkpt>
      <trkpt lat="45.93772" lon="6.17116">
        <ele>477</ele>
        <time>2010-01-01T00:19:58Z</time>
      </trkpt>
      <trkpt lat="45.93779" lon="6.17155">
        <ele>476</ele>
        <time>2010-01-01T00:20:09Z</time>
      </trkpt>
      <trkpt lat="45.93766" lon="6.17201">
        <ele>475</ele>
        <time>2010-01-01T00:20:23Z</time>
      </trkpt>
      <trkpt lat="45.93703" lon="6.17209">
        <ele>481</ele>
        <time>2010-01-01T00:20:48Z</time>
      </trkpt>
      <trkpt lat="45.93675" lon="6.17206">
        <ele>486</ele>
        <time>2010-01-01T00:21:00Z</time>
      </trkpt>
      <trkpt lat="45.93661" lon="6.17217">
        <ele>486</ele>
        <time>2010-01-01T00:21:06Z</time>
      </trkpt>
      <trkpt lat="45.93653" lon="6.17235">
        <ele>484</ele>
        <time>2010-01-01T00:21:12Z</time>
      </trkpt>
      <trkpt lat="45.9364" lon="6.17247">
        <ele>483</ele>
        <time>2010-01-01T00:21:18Z</time>
      </trkpt>
      <trkpt lat="45.9362" lon="6.17294">
        <ele>482</ele>
        <time>2010-01-01T00:21:33Z</time>
      </trkpt>
      <trkpt lat="45.93615" lon="6.17342">
        <ele>479</ele>
        <time>2010-01-01T00:21:47Z</time>
      </trkpt>
      <trkpt lat="45.93613" lon="6.17428">
        <ele>477</ele>
        <time>2010-01-01T00:22:11Z</time>
      </trkpt>
      <trkpt lat="45.93605" lon="6.17457">
        <ele>477</ele>
        <time>2010-01-01T00:22:20Z</time>
      </trkpt>
      <trkpt lat="45.93578" lon="6.17451">
        <ele>477</ele>
        <time>2010-01-01T00:22:30Z</time>
      </trkpt>
      <trkpt lat="45.93562" lon="6.17457">
        <ele>479</ele>
        <time>2010-01-01T00:22:37Z</time>
      </trkpt>
      <trkpt lat="45.93557" lon="6.1748">
        <ele>478</ele>
        <time>2010-01-01T00:22:44Z</time>
      </trkpt>
      <trkpt lat="45.93544" lon="6.17486">
        <ele>478</ele>
        <time>2010-01-01T00:22:50Z</time>
      </trkpt>
      <trkpt lat="45.93537" lon="6.17467">
        <ele>480</ele>
        <time>2010-01-01T00:22:56Z</time>
      </trkpt>
      <trkpt lat="45.93525" lon="6.17489">
        <ele>479</ele>
        <time>2010-01-01T00:23:03Z</time>
      </trkpt>
      <trkpt lat="45.93521" lon="6.17507">
        <ele>477</ele>
        <time>2010-01-01T00:23:09Z</time>
      </trkpt>
      <trkpt lat="45.93497" lon="6.17504">
        <ele>478</ele>
        <time>2010-01-01T00:23:19Z</time>
      </trkpt>
      <trkpt lat="45.93469" lon="6.17506">
        <ele>478</ele>
        <time>2010-01-01T00:23:30Z</time>
      </trkpt>
      <trkpt lat="45.93445" lon="6.17498">
        <ele>479</ele>
        <time>2010-01-01T00:23:39Z</time>
      </trkpt>
      <trkpt lat="45.9341" lon="6.17498">
        <ele>479</ele>
        <time>2010-01-01T00:23:53Z</time>
      </trkpt>
      <trkpt lat="45.93398" lon="6.17494">
        <ele>480</ele>
        <time>2010-01-01T00:23:58Z</time>
      </trkpt>
      <trkpt lat="45.93389" lon="6.17488">
        <ele>481</ele>
        <time>2010-01-01T00:24:03Z</time>
      </trkpt>
      <trkpt lat="45.93368" lon="6.17492">
        <ele>480</ele>
        <time>2010-01-01T00:24:11Z</time>
      </trkpt>
      <trkpt lat="45.93332" lon="6.17491">
        <ele>480</ele>
        <time>2010-01-01T00:24:25Z</time>
      </trkpt>
      <trkpt lat="45.93313" lon="6.17496">
        <ele>480</ele>
        <time>2010-01-01T00:24:33Z</time>
      </trkpt>
      <trkpt lat="45.93278" lon="6.17518">
        <ele>479</ele>
        <time>2010-01-01T00:24:48Z</time>
      </trkpt>
      <trkpt lat="45.93242" lon="6.17493">
        <ele>481</ele>
        <time>2010-01-01T00:25:04Z</time>
      </trkpt>
      <trkpt lat="45.93225" lon="6.17491">
        <ele>482</ele>
        <time>2010-01-01T00:25:11Z</time>
      </trkpt>
      <trkpt lat="45.93179" lon="6.17532">
        <ele>480</ele>
        <time>2010-01-01T00:25:33Z</time>
      </trkpt>
      <trkpt lat="45.93178" lon="6.1753">
        <ele>480</ele>
        <time>2010-01-01T00:25:34Z</time>
      </trkpt>
      <trkpt lat="45.93141" lon="6.17571">
        <ele>480</ele>
        <time>2010-01-01T00:25:52Z</time>
      </trkpt>
      <trkpt lat="45.93103" lon="6.17517">
        <ele>487</ele>
        <time>2010-01-01T00:26:13Z</time>
      </trkpt>
      <trkpt lat="45.93093" lon="6.17482">
        <ele>494</ele>
        <time>2010-01-01T00:26:24Z</time>
      </trkpt>
      <trkpt lat="45.93072" lon="6.17475">
        <ele>499</ele>
        <time>2010-01-01T00:26:33Z</time>
      </trkpt>
      <trkpt lat="45.93056" lon="6.17477">
        <ele>501</ele>
        <time>2010-01-01T00:26:39Z</time>
      </trkpt>
      <trkpt lat="45.93027" lon="6.17502">
        <ele>501</ele>
        <time>2010-01-01T00:26:53Z</time>
      </trkpt>
      <trkpt lat="45.93001" lon="6.17508">
        <ele>504</ele>
        <time>2010-01-01T00:27:03Z</time>
      </trkpt>
      <trkpt lat="45.92972" lon="6.17508">
        <ele>510</ele>
        <time>2010-01-01T00:27:15Z</time>
      </trkpt>
      <trkpt lat="45.92962" lon="6.17503">
        <ele>513</ele>
        <time>2010-01-01T00:27:19Z</time>
      </trkpt>
      <trkpt lat="45.92947" lon="6.17513">
        <ele>514</ele>
        <time>2010-01-01T00:27:25Z</time>
      </trkpt>
      <trkpt lat="45.92933" lon="6.17517">
        <ele>516</ele>
        <time>2010-01-01T00:27:31Z</time>
      </trkpt>
      <trkpt lat="45.92921" lon="6.17523">
        <ele>517</ele>
        <time>2010-01-01T00:27:36Z</time>
      </trkpt>
      <trkpt lat="45.92903" lon="6.17584">
        <ele>509</ele>
        <time>2010-01-01T00:27:55Z</time>
      </trkpt>
      <trkpt lat="45.9289" lon="6.17601">
        <ele>509</ele>
        <time>2010-01-01T00:28:02Z</time>
      </trkpt>
      <trkpt lat="45.92877" lon="6.17613">
        <ele>510</ele>
        <time>2010-01-01T00:28:08Z</time>
      </trkpt>
      <trkpt lat="45.92866" lon="6.17621">
        <ele>511</ele>
        <time>2010-01-01T00:28:13Z</time>
      </trkpt>
      <trkpt lat="45.92863" lon="6.17641">
        <ele>509</ele>
        <time>2010-01-01T00:28:19Z</time>
      </trkpt>
      <trkpt lat="45.92863" lon="6.1768">
        <ele>502</ele>
        <time>2010-01-01T00:28:29Z</time>
      </trkpt>
      <trkpt lat="45.92868" lon="6.17719">
        <ele>495</ele>
        <time>2010-01-01T00:28:41Z</time>
      </trkpt>
      <trkpt lat="45.92861" lon="6.17767">
        <ele>491</ele>
        <time>2010-01-01T00:28:54Z</time>
      </trkpt>
      <trkpt lat="45.92849" lon="6.17809">
        <ele>487</ele>
        <time>2010-01-01T00:29:07Z</time>
      </trkpt>
      <trkpt lat="45.92806" lon="6.17865">
        <ele>486</ele>
        <time>2010-01-01T00:29:30Z</time>
      </trkpt>
      <trkpt lat="45.92811" lon="6.17893">
        <ele>484</ele>
        <time>2010-01-01T00:29:38Z</time>
      </trkpt>
      <trkpt lat="45.92844" lon="6.17988">
        <ele>493</ele>
        <time>2010-01-01T00:30:07Z</time>
      </trkpt>
      <trkpt lat="45.92838" lon="6.17989">
        <ele>492</ele>
        <time>2010-01-01T00:30:10Z</time>
      </trkpt>
      <trkpt lat="45.92829" lon="6.18003">
        <ele>492</ele>
        <time>2010-01-01T00:30:15Z</time>
      </trkpt>
      <trkpt lat="45.92809" lon="6.18027">
        <ele>493</ele>
        <time>2010-01-01T00:30:26Z</time>
      </trkpt>
      <trkpt lat="45.92781" lon="6.18013">
        <ele>489</ele>
        <time>2010-01-01T00:30:37Z</time>
      </trkpt>
      <trkpt lat="45.9275" lon="6.18015">
        <ele>486</ele>
        <time>2010-01-01T00:30:50Z</time>
      </trkpt>
      <trkpt lat="45.92693" lon="6.18064">
        <ele>489</ele>
        <time>2010-01-01T00:31:16Z</time>
      </trkpt>
      <trkpt lat="45.92642" lon="6.18052">
        <ele>486</ele>
        <time>2010-01-01T00:31:37Z</time>
      </trkpt>
      <trkpt lat="45.92594" lon="6.18082">
        <ele>486</ele>
        <time>2010-01-01T00:31:58Z</time>
      </trkpt>
      <trkpt lat="45.9252" lon="6.18187">
        <ele>486</ele>
        <time>2010-01-01T00:32:40Z</time>
      </trkpt>
      <trkpt lat="45.92502" lon="6.18238">
        <ele>486</ele>
        <time>2010-01-01T00:32:56Z</time>
      </trkpt>
      <trkpt lat="45.92524" lon="6.18294">
        <ele>489</ele>
        <time>2010-01-01T00:33:13Z</time>
      </trkpt>
      <trkpt lat="45.92527" lon="6.18362">
        <ele>491</ele>
        <time>2010-01-01T00:33:32Z</time>
      </trkpt>
      <trkpt lat="45.92514" lon="6.18489">
        <ele>491</ele>
        <time>2010-01-01T00:34:08Z</time>
      </trkpt>
      <trkpt lat="45.925" lon="6.18538">
        <ele>490</ele>
        <time>2010-01-01T00:34:23Z</time>
      </trkpt>
      <trkpt lat="45.9251" lon="6.18579">
        <ele>493</ele>
        <time>2010-01-01T00:34:35Z</time>
      </trkpt>
      <trkpt lat="45.92518" lon="6.1865">
        <ele>496</ele>
        <time>2010-01-01T00:34:55Z</time>
      </trkpt>
      <trkpt lat="45.92507" lon="6.18686">
        <ele>494</ele>
        <time>2010-01-01T00:35:06Z</time>
      </trkpt>
      <trkpt lat="45.92498" lon="6.18783">
        <ele>494</ele>
        <time>2010-01-01T00:35:33Z</time>
      </trkpt>
      <trkpt lat="45.92482" lon="6.18862">
        <ele>495</ele>
        <time>2010-01-01T00:35:56Z</time>
      </trkpt>
      <trkpt lat="45.92462" lon="6.18936">
        <ele>495</ele>
        <time>2010-01-01T00:36:19Z</time>
      </trkpt>
      <trkpt lat="45.92466" lon="6.18947">
        <ele>495</ele>
        <time>2010-01-01T00:36:22Z</time>
      </trkpt>
      <trkpt lat="45.9247" lon="6.18973">
        <ele>496</ele>
        <time>2010-01-01T00:36:29Z</time>
      </trkpt>
      <trkpt lat="45.92461" lon="6.18998">
        <ele>496</ele>
        <time>2010-01-01T00:36:37Z</time>
      </trkpt>
      <trkpt lat="45.92419" lon="6.19032">
        <ele>495</ele>
        <time>2010-01-01T00:36:56Z</time>
      </trkpt>
      <trkpt lat="45.92392" lon="6.19081">
        <ele>496</ele>
        <time>2010-01-01T00:37:14Z</time>
      </trkpt>
      <trkpt lat="45.92344" lon="6.19147">
        <ele>496</ele>
        <time>2010-01-01T00:37:41Z</time>
      </trkpt>
      <trkpt lat="45.9235" lon="6.19213">
        <ele>500</ele>
        <time>2010-01-01T00:37:59Z</time>
      </trkpt>
      <trkpt lat="45.92345" lon="6.19211">
        <ele>499</ele>
        <time>2010-01-01T00:38:01Z</time>
      </trkpt>
      <trkpt lat="45.92349" lon="6.19227">
        <ele>500</ele>
        <time>2010-01-01T00:38:06Z</time>
      </trkpt>
      <trkpt lat="45.92351" lon="6.1925">
        <ele>502</ele>
        <time>2010-01-01T00:38:12Z</time>
      </trkpt>
      <trkpt lat="45.9237" lon="6.19272">
        <ele>509</ele>
        <time>2010-01-01T00:38:22Z</time>
      </trkpt>
      <trkpt lat="45.92405" lon="6.19285">
        <ele>517</ele>
        <time>2010-01-01T00:38:37Z</time>
      </trkpt>
      <trkpt lat="45.92436" lon="6.19284">
        <ele>524</ele>
        <time>2010-01-01T00:38:49Z</time>
      </trkpt>
      <trkpt lat="45.92517" lon="6.19318">
        <ele>547</ele>
        <time>2010-01-01T00:39:23Z</time>
      </trkpt>
      <trkpt lat="45.92499" lon="6.19348">
        <ele>547</ele>
        <time>2010-01-01T00:39:34Z</time>
      </trkpt>
      <trkpt lat="45.92474" lon="6.19361">
        <ele>543</ele>
        <time>2010-01-01T00:39:45Z</time>
      </trkpt>
      <trkpt lat="45.92452" lon="6.19379">
        <ele>541</ele>
        <time>2010-01-01T00:39:55Z</time>
      </trkpt>
      <trkpt lat="45.92439" lon="6.19394">
        <ele>541</ele>
        <time>2010-01-01T00:40:01Z</time>
      </trkpt>
      <trkpt lat="45.92453" lon="6.19387">
        <ele>542</ele>
        <time>2010-01-01T00:40:07Z</time>
      </trkpt>
      <trkpt lat="45.9246" lon="6.19402">
        <ele>546</ele>
        <time>2010-01-01T00:40:13Z</time>
      </trkpt>
      <trkpt lat="45.92443" lon="6.1941">
        <ele>544</ele>
        <time>2010-01-01T00:40:20Z</time>
      </trkpt>
      <trkpt lat="45.92436" lon="6.19439">
        <ele>547</ele>
        <time>2010-01-01T00:40:28Z</time>
      </trkpt>
      <trkpt lat="45.92417" lon="6.19439">
        <ele>543</ele>
        <time>2010-01-01T00:40:36Z</time>
      </trkpt>
      <trkpt lat="45.92426" lon="6.19445">
        <ele>546</ele>
        <time>2010-01-01T00:40:40Z</time>
      </trkpt>
      <trkpt lat="45.92449" lon="6.19453">
        <ele>552</ele>
        <time>2010-01-01T00:40:49Z</time>
      </trkpt>
      <trkpt lat="45.925" lon="6.19442">
        <ele>561</ele>
        <time>2010-01-01T00:41:10Z</time>
      </trkpt>
      <trkpt lat="45.92558" lon="6.19401">
        <ele>564</ele>
        <time>2010-01-01T00:41:36Z</time>
      </trkpt>
      <trkpt lat="45.92604" lon="6.19436">
        <ele>574</ele>
        <time>2010-01-01T00:41:57Z</time>
      </trkpt>
      <trkpt lat="45.92627" lon="6.19442">
        <ele>577</ele>
        <time>2010-01-01T00:42:06Z</time>
      </trkpt>
      <trkpt lat="45.92679" lon="6.19469">
        <ele>584</ele>
        <time>2010-01-01T00:42:28Z</time>
      </trkpt>
      <trkpt lat="45.92714" lon="6.19494">
        <ele>589</ele>
        <time>2010-01-01T00:42:44Z</time>
      </trkpt>
      <trkpt lat="45.92728" lon="6.19497">
        <ele>590</ele>
        <time>2010-01-01T00:42:49Z</time>
      </trkpt>
      <trkpt lat="45.92761" lon="6.19498">
        <ele>593</ele>
        <time>2010-01-01T00:43:03Z</time>
      </trkpt>
      <trkpt lat="45.92796" lon="6.19517">
        <ele>597</ele>
        <time>2010-01-01T00:43:18Z</time>
      </trkpt>
      <trkpt lat="45.92839" lon="6.19479">
        <ele>598</ele>
        <time>2010-01-01T00:43:38Z</time>
      </trkpt>
      <trkpt lat="45.92849" lon="6.1948">
        <ele>600</ele>
        <time>2010-01-01T00:43:42Z</time>
      </trkpt>
      <trkpt lat="45.92889" lon="6.19554">
        <ele>610</ele>
        <time>2010-01-01T00:44:08Z</time>
      </trkpt>
      <trkpt lat="45.9293" lon="6.1961">
        <ele>619</ele>
        <time>2010-01-01T00:44:30Z</time>
      </trkpt>
      <trkpt lat="45.92961" lon="6.19581">
        <ele>622</ele>
        <time>2010-01-01T00:44:45Z</time>
      </trkpt>
      <trkpt lat="45.92992" lon="6.19547">
        <ele>626</ele>
        <time>2010-01-01T00:45:01Z</time>
      </trkpt>
      <trkpt lat="45.93009" lon="6.19565">
        <ele>628</ele>
        <time>2010-01-01T00:45:09Z</time>
      </trkpt>
      <trkpt lat="45.93031" lon="6.19572">
        <ele>630</ele>
        <time>2010-01-01T00:45:18Z</time>
      </trkpt>
      <trkpt lat="45.93047" lon="6.19574">
        <ele>631</ele>
        <time>2010-01-01T00:45:25Z</time>
      </trkpt>
      <trkpt lat="45.93056" lon="6.19587">
        <ele>632</ele>
        <time>2010-01-01T00:45:30Z</time>
      </trkpt>
      <trkpt lat="45.93071" lon="6.19625">
        <ele>635</ele>
        <time>2010-01-01T00:45:42Z</time>
      </trkpt>
      <trkpt lat="45.9308" lon="6.19644">
        <ele>636</ele>
        <time>2010-01-01T00:45:48Z</time>
      </trkpt>
      <trkpt lat="45.9309" lon="6.19653">
        <ele>637</ele>
        <time>2010-01-01T00:45:53Z</time>
      </trkpt>
      <trkpt lat="45.93112" lon="6.19641">
        <ele>639</ele>
        <time>2010-01-01T00:46:02Z</time>
      </trkpt>
      <trkpt lat="45.93153" lon="6.19578">
        <ele>639</ele>
        <time>2010-01-01T00:46:26Z</time>
      </trkpt>
      <trkpt lat="45.9321" lon="6.19521">
        <ele>639</ele>
        <time>2010-01-01T00:46:54Z</time>
      </trkpt>
      <trkpt lat="45.93236" lon="6.19483">
        <ele>638</ele>
        <time>2010-01-01T00:47:09Z</time>
      </trkpt>
      <trkpt lat="45.93267" lon="6.19427">
        <ele>637</ele>
        <time>2010-01-01T00:47:29Z</time>
      </trkpt>
      <trkpt lat="45.9327" lon="6.19425">
        <ele>637</ele>
        <time>2010-01-01T00:47:30Z</time>
      </trkpt>
      <trkpt lat="45.93284" lon="6.19387">
        <ele>636</ele>
        <time>2010-01-01T00:47:42Z</time>
      </trkpt>
      <trkpt lat="45.93303" lon="6.1936">
        <ele>636</ele>
        <time>2010-01-01T00:47:53Z</time>
      </trkpt>
      <trkpt lat="45.93308" lon="6.19373">
        <ele>637</ele>
        <time>2010-01-01T00:47:57Z</time>
      </trkpt>
      <trkpt lat="45.93311" lon="6.19466">
        <ele>641</ele>
        <time>2010-01-01T00:48:23Z</time>
      </trkpt>
      <trkpt lat="45.93287" lon="6.195">
        <ele>642</ele>
        <time>2010-01-01T00:48:37Z</time>
      </trkpt>
      <trkpt lat="45.93293" lon="6.19566">
        <ele>648</ele>
        <time>2010-01-01T00:48:55Z</time>
      </trkpt>
      <trkpt lat="45.93294" lon="6.1961">
        <ele>651</ele>
        <time>2010-01-01T00:49:08Z</time>
      </trkpt>
      <trkpt lat="45.93298" lon="6.19728">
        <ele>661</ele>
        <time>2010-01-01T00:49:40Z</time>
      </trkpt>
      <trkpt lat="45.93288" lon="6.19753">
        <ele>663</ele>
        <time>2010-01-01T00:49:49Z</time>
      </trkpt>
      <trkpt lat="45.93286" lon="6.19776">
        <ele>666</ele>
        <time>2010-01-01T00:49:55Z</time>
      </trkpt>
      <trkpt lat="45.933" lon="6.19943">
        <ele>688</ele>
        <time>2010-01-01T00:50:42Z</time>
      </trkpt>
      <trkpt lat="45.93288" lon="6.19944">
        <ele>686</ele>
        <time>2010-01-01T00:50:46Z</time>
      </trkpt>
      <trkpt lat="45.93272" lon="6.19951">
        <ele>685</ele>
        <time>2010-01-01T00:50:53Z</time>
      </trkpt>
      <trkpt lat="45.93274" lon="6.19962">
        <ele>687</ele>
        <time>2010-01-01T00:50:57Z</time>
      </trkpt>
      <trkpt lat="45.93277" lon="6.20035">
        <ele>700</ele>
        <time>2010-01-01T00:51:17Z</time>
      </trkpt>
      <trkpt lat="45.93274" lon="6.20062">
        <ele>705</ele>
        <time>2010-01-01T00:51:24Z</time>
      </trkpt>
      <trkpt lat="45.93276" lon="6.20066">
        <ele>706</ele>
        <time>2010-01-01T00:51:26Z</time>
      </trkpt>
      <trkpt lat="45.93276" lon="6.20061">
        <ele>705</ele>
        <time>2010-01-01T00:51:27Z</time>
      </trkpt>
      <trkpt lat="45.93297" lon="6.20058">
        <ele>708</ele>
        <time>2010-01-01T00:51:35Z</time>
      </trkpt>
      <trkpt lat="45.93318" lon="6.20083">
        <ele>716</ele>
        <time>2010-01-01T00:51:46Z</time>
      </trkpt>
      <trkpt lat="45.9333" lon="6.20118">
        <ele>723</ele>
        <time>2010-01-01T00:51:57Z</time>
      </trkpt>
      <trkpt lat="45.93332" lon="6.20145">
        <ele>728</ele>
        <time>2010-01-01T00:52:05Z</time>
      </trkpt>
      <trkpt lat="45.93337" lon="6.20158">
        <ele>731</ele>
        <time>2010-01-01T00:52:09Z</time>
      </trkpt>
      <trkpt lat="45.93365" lon="6.20153">
        <ele>733</ele>
        <time>2010-01-01T00:52:20Z</time>
      </trkpt>
      <trkpt lat="45.93386" lon="6.20089">
        <ele>724</ele>
        <time>2010-01-01T00:52:40Z</time>
      </trkpt>
      <trkpt lat="45.93401" lon="6.20098">
        <ele>727</ele>
        <time>2010-01-01T00:52:47Z</time>
      </trkpt>
      <trkpt lat="45.93416" lon="6.20101">
        <ele>729</ele>
        <time>2010-01-01T00:52:53Z</time>
      </trkpt>
      <trkpt lat="45.93412" lon="6.20109">
        <ele>730</ele>
        <time>2010-01-01T00:52:55Z</time>
      </trkpt>
      <trkpt lat="45.93414" lon="6.20159">
        <ele>739</ele>
        <time>2010-01-01T00:53:09Z</time>
      </trkpt>
      <trkpt lat="45.93439" lon="6.20293">
        <ele>766</ele>
        <time>2010-01-01T00:53:48Z</time>
      </trkpt>
      <trkpt lat="45.93436" lon="6.20293">
        <ele>766</ele>
        <time>2010-01-01T00:53:49Z</time>
      </trkpt>
      <trkpt lat="45.93441" lon="6.20312">
        <ele>770</ele>
        <time>2010-01-01T00:53:55Z</time>
      </trkpt>
      <trkpt lat="45.93461" lon="6.2034">
        <ele>778</ele>
        <time>2010-01-01T00:54:06Z</time>
      </trkpt>
      <trkpt lat="45.93482" lon="6.20363">
        <ele>786</ele>
        <time>2010-01-01T00:54:17Z</time>
      </trkpt>
      <trkpt lat="45.93565" lon="6.20364">
        <ele>793</ele>
        <time>2010-01-01T00:54:50Z</time>
      </trkpt>
      <trkpt lat="45.93577" lon="6.20384">
        <ele>800</ele>
        <time>2010-01-01T00:54:57Z</time>
      </trkpt>
      <trkpt lat="45.93587" lon="6.20373">
        <ele>797</ele>
        <time>2010-01-01T00:55:02Z</time>
      </trkpt>
      <trkpt lat="45.93615" lon="6.20302">
        <ele>778</ele>
        <time>2010-01-01T00:55:25Z</time>
      </trkpt>
      <trkpt lat="45.93633" lon="6.20315">
        <ele>781</ele>
        <time>2010-01-01T00:55:33Z</time>
      </trkpt>
      <trkpt lat="45.93651" lon="6.20353">
        <ele>791</ele>
        <time>2010-01-01T00:55:46Z</time>
      </trkpt>
      <trkpt lat="45.93663" lon="6.20386">
        <ele>799</ele>
        <time>2010-01-01T00:55:56Z</time>
      </trkpt>
      <trkpt lat="45.93681" lon="6.20443">
        <ele>812</ele>
        <time>2010-01-01T00:56:14Z</time>
      </trkpt>
      <trkpt lat="45.93682" lon="6.20448">
        <ele>813</ele>
        <time>2010-01-01T00:56:15Z</time>
      </trkpt>
      <trkpt lat="45.93701" lon="6.20474">
        <ele>818</ele>
        <time>2010-01-01T00:56:26Z</time>
      </trkpt>
      <trkpt lat="45.93715" lon="6.20476">
        <ele>817</ele>
        <time>2010-01-01T00:56:32Z</time>
      </trkpt>
      <trkpt lat="45.93726" lon="6.20493">
        <ele>820</ele>
        <time>2010-01-01T00:56:38Z</time>
      </trkpt>
      <trkpt lat="45.93732" lon="6.20512">
        <ele>824</ele>
        <time>2010-01-01T00:56:44Z</time>
      </trkpt>
      <trkpt lat="45.93728" lon="6.20529">
        <ele>828</ele>
        <time>2010-01-01T00:56:49Z</time>
      </trkpt>
      <trkpt lat="45.93731" lon="6.20633">
        <ele>849</ele>
        <time>2010-01-01T00:57:18Z</time>
      </trkpt>
      <trkpt lat="45.93726" lon="6.20667">
        <ele>856</ele>
        <time>2010-01-01T00:57:27Z</time>
      </trkpt>
      <trkpt lat="45.9371" lon="6.2073">
        <ele>868</ele>
        <time>2010-01-01T00:57:46Z</time>
      </trkpt>
      <trkpt lat="45.93713" lon="6.20746">
        <ele>871</ele>
        <time>2010-01-01T00:57:51Z</time>
      </trkpt>
      <trkpt lat="45.93713" lon="6.20847">
        <ele>894</ele>
        <time>2010-01-01T00:58:19Z</time>
      </trkpt>
      <trkpt lat="45.93737" lon="6.20863">
        <ele>896</ele>
        <time>2010-01-01T00:58:29Z</time>
      </trkpt>
      <trkpt lat="45.93759" lon="6.20882">
        <ele>901</ele>
        <time>2010-01-01T00:58:40Z</time>
      </trkpt>
      <trkpt lat="45.93787" lon="6.20928">
        <ele>914</ele>
        <time>2010-01-01T00:58:57Z</time>
      </trkpt>
      <trkpt lat="45.93782" lon="6.2097">
        <ele>927</ele>
        <time>2010-01-01T00:59:09Z</time>
      </trkpt>
      <trkpt lat="45.93797" lon="6.21014">
        <ele>941</ele>
        <time>2010-01-01T00:59:22Z</time>
      </trkpt>
      <trkpt lat="45.93821" lon="6.2105">
        <ele>952</ele>
        <time>2010-01-01T00:59:36Z</time>
      </trkpt>
      <trkpt lat="45.9384" lon="6.21069">
        <ele>957</ele>
        <time>2010-01-01T00:59:45Z</time>
      </trkpt>
      <trkpt lat="45.93853" lon="6.21089">
        <ele>961</ele>
        <time>2010-01-01T00:59:53Z</time>
      </trkpt>
      <trkpt lat="45.9388" lon="6.21118">
        <ele>965</ele>
        <time>2010-01-01T01:00:06Z</time>
      </trkpt>
      <trkpt lat="45.93911" lon="6.21136">
        <ele>965</ele>
        <time>2010-01-01T01:00:20Z</time>
      </trkpt>
      <trkpt lat="45.93932" lon="6.21186">
        <ele>973</ele>
        <time>2010-01-01T01:00:36Z</time>
      </trkpt>
      <trkpt lat="45.93956" lon="6.21215">
        <ele>977</ele>
        <time>2010-01-01T01:00:49Z</time>
      </trkpt>
      <trkpt lat="45.93969" lon="6.21258">
        <ele>985</ele>
        <time>2010-01-01T01:01:02Z</time>
      </trkpt>
      <trkpt lat="45.93993" lon="6.21291">
        <ele>989</ele>
        <time>2010-01-01T01:01:15Z</time>
      </trkpt>
      <trkpt lat="45.94027" lon="6.21361">
        <ele>1001</ele>
        <time>2010-01-01T01:01:39Z</time>
      </trkpt>
      <trkpt lat="45.94038" lon="6.21401">
        <ele>1008</ele>
        <time>2010-01-01T01:01:51Z</time>
      </trkpt>
      <trkpt lat="45.94044" lon="6.2144">
        <ele>1017</ele>
        <time>2010-01-01T01:02:02Z</time>
      </trkpt>
      <trkpt lat="45.94054" lon="6.21471">
        <ele>1022</ele>
        <time>2010-01-01T01:02:11Z</time>
      </trkpt>
      <trkpt lat="45.94067" lon="6.21543">
        <ele>1036</ele>
        <time>2010-01-01T01:02:32Z</time>
      </trkpt>
      <trkpt lat="45.94074" lon="6.21544">
        <ele>1033</ele>
        <time>2010-01-01T01:02:35Z</time>
      </trkpt>
      <trkpt lat="45.9408" lon="6.21541">
        <ele>1029</ele>
        <time>2010-01-01T01:02:37Z</time>
      </trkpt>
      <trkpt lat="45.94074" lon="6.21541">
        <ele>1032</ele>
        <time>2010-01-01T01:02:39Z</time>
      </trkpt>
      <trkpt lat="45.94078" lon="6.21577">
        <ele>1039</ele>
        <time>2010-01-01T01:02:49Z</time>
      </trkpt>
      <trkpt lat="45.94098" lon="6.21626">
        <ele>1043</ele>
        <time>2010-01-01T01:03:05Z</time>
      </trkpt>
      <trkpt lat="45.94136" lon="6.21748">
        <ele>1056</ele>
        <time>2010-01-01T01:03:42Z</time>
      </trkpt>
      <trkpt lat="45.94133" lon="6.21804">
        <ele>1067</ele>
        <time>2010-01-01T01:03:58Z</time>
      </trkpt>
      <trkpt lat="45.94116" lon="6.21879">
        <ele>1082</ele>
        <time>2010-01-01T01:04:20Z</time>
      </trkpt>
      <trkpt lat="45.94113" lon="6.2192">
        <ele>1087</ele>
        <time>2010-01-01T01:04:31Z</time>
      </trkpt>
      <trkpt lat="45.94104" lon="6.2199">
        <ele>1097</ele>
        <time>2010-01-01T01:04:51Z</time>
      </trkpt>
      <trkpt lat="45.9411" lon="6.22028">
        <ele>1100</ele>
        <time>2010-01-01T01:05:02Z</time>
      </trkpt>
      <trkpt lat="45.94096" lon="6.22079">
        <ele>1107</ele>
        <time>2010-01-01T01:05:17Z</time>
      </trkpt>
      <trkpt lat="45.94109" lon="6.22186">
        <ele>1118</ele>
        <time>2010-01-01T01:05:48Z</time>
      </trkpt>
      <trkpt lat="45.94103" lon="6.22223">
        <ele>1120</ele>
        <time>2010-01-01T01:05:58Z</time>
      </trkpt>
      <trkpt lat="45.94104" lon="6.22219">
        <ele>1120</ele>
        <time>2010-01-01T01:06:00Z</time>
      </trkpt>
      <trkpt lat="45.94063" lon="6.222">
        <ele>1120</ele>
        <time>2010-01-01T01:06:17Z</time>
      </trkpt>
      <trkpt lat="45.94004" lon="6.22156">
        <ele>1126</ele>
        <time>2010-01-01T01:06:44Z</time>
      </trkpt>
      <trkpt lat="45.93976" lon="6.22138">
        <ele>1131</ele>
        <time>2010-01-01T01:06:56Z</time>
      </trkpt>
      <trkpt lat="45.93913" lon="6.2208">
        <ele>1151</ele>
        <time>2010-01-01T01:07:26Z</time>
      </trkpt>
      <trkpt lat="45.939" lon="6.22078">
        <ele>1152</ele>
        <time>2010-01-01T01:07:31Z</time>
      </trkpt>
      <trkpt lat="45.93873" lon="6.22024">
        <ele>1163</ele>
        <time>2010-01-01T01:07:49Z</time>
      </trkpt>
      <trkpt lat="45.93837" lon="6.21962">
        <ele>1179</ele>
        <time>2010-01-01T01:08:12Z</time>
      </trkpt>
      <trkpt lat="45.93839" lon="6.21936">
        <ele>1183</ele>
        <time>2010-01-01T01:08:19Z</time>
      </trkpt>
      <trkpt lat="45.93843" lon="6.21908">
        <ele>1186</ele>
        <time>2010-01-01T01:08:28Z</time>
      </trkpt>
      <trkpt lat="45.93841" lon="6.21878">
        <ele>1191</ele>
        <time>2010-01-01T01:08:36Z</time>
      </trkpt>
      <trkpt lat="45.93846" lon="6.21873">
        <ele>1191</ele>
        <time>2010-01-01T01:08:38Z</time>
      </trkpt>
      <trkpt lat="45.93844" lon="6.21857">
        <ele>1193</ele>
        <time>2010-01-01T01:08:43Z</time>
      </trkpt>
      <trkpt lat="45.93837" lon="6.21835">
        <ele>1198</ele>
        <time>2010-01-01T01:08:50Z</time>
      </trkpt>
      <trkpt lat="45.93828" lon="6.2183">
        <ele>1199</ele>
        <time>2010-01-01T01:08:53Z</time>
      </trkpt>
      <trkpt lat="45.93782" lon="6.21737">
        <ele>1203</ele>
        <time>2010-01-01T01:09:25Z</time>
      </trkpt>
      <trkpt lat="45.9371" lon="6.21681">
        <ele>1212</ele>
        <time>2010-01-01T01:09:58Z</time>
      </trkpt>
      <trkpt lat="45.93683" lon="6.21673">
        <ele>1217</ele>
        <time>2010-01-01T01:10:09Z</time>
      </trkpt>
      <trkpt lat="45.93642" lon="6.21632">
        <ele>1219</ele>
        <time>2010-01-01T01:10:29Z</time>
      </trkpt>
      <trkpt lat="45.93631" lon="6.21626">
        <ele>1220</ele>
        <time>2010-01-01T01:10:34Z</time>
      </trkpt>
      <trkpt lat="45.93621" lon="6.21624">
        <ele>1221</ele>
        <time>2010-01-01T01:10:38Z</time>
      </trkpt>
      <trkpt lat="45.93596" lon="6.21629">
        <ele>1224</ele>
        <time>2010-01-01T01:10:48Z</time>
      </trkpt>
      <trkpt lat="45.93576" lon="6.21618">
        <ele>1226</ele>
        <time>2010-01-01T01:10:57Z</time>
      </trkpt>
      <trkpt lat="45.93571" lon="6.21604">
        <ele>1227</ele>
        <time>2010-01-01T01:11:01Z</time>
      </trkpt>
      <trkpt lat="45.93548" lon="6.21623">
        <ele>1230</ele>
        <time>2010-01-01T01:11:11Z</time>
      </trkpt>
      <trkpt lat="45.93528" lon="6.21625">
        <ele>1232</ele>
        <time>2010-01-01T01:11:19Z</time>
      </trkpt>
      <trkpt lat="45.93509" lon="6.216">
        <ele>1236</ele>
        <time>2010-01-01T01:11:30Z</time>
      </trkpt>
      <trkpt lat="45.93501" lon="6.21597">
        <ele>1238</ele>
        <time>2010-01-01T01:11:33Z</time>
      </trkpt>
      <trkpt lat="45.9347" lon="6.21593">
        <ele>1243</ele>
        <time>2010-01-01T01:11:45Z</time>
      </trkpt>
      <trkpt lat="45.93454" lon="6.21585">
        <ele>1247</ele>
        <time>2010-01-01T01:11:52Z</time>
      </trkpt>
      <trkpt lat="45.93441" lon="6.21576">
        <ele>1247</ele>
        <time>2010-01-01T01:11:58Z</time>
      </trkpt>
      <trkpt lat="45.93432" lon="6.21583">
        <ele>1251</ele>
        <time>2010-01-01T01:12:02Z</time>
      </trkpt>
      <trkpt lat="45.93409" lon="6.21573">
        <ele>1251</ele>
        <time>2010-01-01T01:12:12Z</time>
      </trkpt>
      <trkpt lat="45.93385" lon="6.21571">
        <ele>1252</ele>
        <time>2010-01-01T01:12:21Z</time>
      </trkpt>
      <trkpt lat="45.93364" lon="6.21553">
        <ele>1248</ele>
        <time>2010-01-01T01:12:31Z</time>
      </trkpt>
      <trkpt lat="45.9335" lon="6.21533">
        <ele>1243</ele>
        <time>2010-01-01T01:12:39Z</time>
      </trkpt>
      <trkpt lat="45.93337" lon="6.21532">
        <ele>1245</ele>
        <time>2010-01-01T01:12:44Z</time>
      </trkpt>
      <trkpt lat="45.93313" lon="6.21526">
        <ele>1243</ele>
        <time>2010-01-01T01:12:54Z</time>
      </trkpt>
      <trkpt lat="45.93297" lon="6.2151">
        <ele>1240</ele>
        <time>2010-01-01T01:13:02Z</time>
      </trkpt>
      <trkpt lat="45.93265" lon="6.21507">
        <ele>1240</ele>
        <time>2010-01-01T01:13:15Z</time>
      </trkpt>
      <trkpt lat="45.93242" lon="6.21515">
        <ele>1240</ele>
        <time>2010-01-01T01:13:24Z</time>
      </trkpt>
      <trkpt lat="45.93242" lon="6.21514">
        <ele>1240</ele>
        <time>2010-01-01T01:13:24Z</time>
      </trkpt>
      <trkpt lat="45.932" lon="6.21504">
        <ele>1234</ele>
        <time>2010-01-01T01:13:41Z</time>
      </trkpt>
      <trkpt lat="45.93175" lon="6.21493">
        <ele>1228</ele>
        <time>2010-01-01T01:13:52Z</time>
      </trkpt>
      <trkpt lat="45.93132" lon="6.21478">
        <ele>1220</ele>
        <time>2010-01-01T01:14:09Z</time>
      </trkpt>
      <trkpt lat="45.93108" lon="6.21468">
        <ele>1216</ele>
        <time>2010-01-01T01:14:19Z</time>
      </trkpt>
      <trkpt lat="45.93083" lon="6.21443">
        <ele>1208</ele>
        <time>2010-01-01T01:14:32Z</time>
      </trkpt>
      <trkpt lat="45.9302" lon="6.21432">
        <ele>1201</ele>
        <time>2010-01-01T01:14:57Z</time>
      </trkpt>
      <trkpt lat="45.92989" lon="6.21435">
        <ele>1199</ele>
        <time>2010-01-01T01:15:10Z</time>
      </trkpt>
      <trkpt lat="45.92968" lon="6.21444">
        <ele>1197</ele>
        <time>2010-01-01T01:15:18Z</time>
      </trkpt>
      <trkpt lat="45.92916" lon="6.21443">
        <ele>1191</ele>
        <time>2010-01-01T01:15:39Z</time>
      </trkpt>
      <trkpt lat="45.92858" lon="6.21448">
        <ele>1184</ele>
        <time>2010-01-01T01:16:02Z</time>
      </trkpt>
      <trkpt lat="45.92818" lon="6.21447">
        <ele>1178</ele>
        <time>2010-01-01T01:16:18Z</time>
      </trkpt>
      <trkpt lat="45.9278" lon="6.21434">
        <ele>1172</ele>
        <time>2010-01-01T01:16:34Z</time>
      </trkpt>
      <trkpt lat="45.92766" lon="6.21426">
        <ele>1170</ele>
        <time>2010-01-01T01:16:40Z</time>
      </trkpt>
      <trkpt lat="45.92749" lon="6.21419">
        <ele>1167</ele>
        <time>2010-01-01T01:16:47Z</time>
      </trkpt>
      <trkpt lat="45.92714" lon="6.21389">
        <ele>1161</ele>
        <time>2010-01-01T01:17:03Z</time>
      </trkpt>
      <trkpt lat="45.92678" lon="6.21386">
        <ele>1159</ele>
        <time>2010-01-01T01:17:18Z</time>
      </trkpt>
      <trkpt lat="45.92656" lon="6.21367">
        <ele>1154</ele>
        <time>2010-01-01T01:17:28Z</time>
      </trkpt>
      <trkpt lat="45.92636" lon="6.21358">
        <ele>1151</ele>
        <time>2010-01-01T01:17:37Z</time>
      </trkpt>
      <trkpt lat="45.92603" lon="6.21345">
        <ele>1146</ele>
        <time>2010-01-01T01:17:50Z</time>
      </trkpt>
      <trkpt lat="45.92571" lon="6.2134">
        <ele>1142</ele>
        <time>2010-01-01T01:18:03Z</time>
      </trkpt>
      <trkpt lat="45.92535" lon="6.21297">
        <ele>1125</ele>
        <time>2010-01-01T01:18:22Z</time>
      </trkpt>
      <trkpt lat="45.92421" lon="6.21258">
        <ele>1110</ele>
        <time>2010-01-01T01:19:09Z</time>
      </trkpt>
      <trkpt lat="45.92359" lon="6.21259">
        <ele>1106</ele>
        <time>2010-01-01T01:19:34Z</time>
      </trkpt>
      <trkpt lat="45.92318" lon="6.21257">
        <ele>1101</ele>
        <time>2010-01-01T01:19:50Z</time>
      </trkpt>
      <trkpt lat="45.92332" lon="6.21183">
        <ele>1071</ele>
        <time>2010-01-01T01:20:12Z</time>
      </trkpt>
      <trkpt lat="45.92285" lon="6.2117">
        <ele>1061</ele>
        <time>2010-01-01T01:20:31Z</time>
      </trkpt>
      <trkpt lat="45.92241" lon="6.21166">
        <ele>1054</ele>
        <time>2010-01-01T01:20:48Z</time>
      </trkpt>
      <trkpt lat="45.92211" lon="6.21176">
        <ele>1055</ele>
        <time>2010-01-01T01:21:01Z</time>
      </trkpt>
      <trkpt lat="45.92194" lon="6.21186">
        <ele>1055</ele>
        <time>2010-01-01T01:21:08Z</time>
      </trkpt>
      <trkpt lat="45.9215" lon="6.21196">
        <ele>1052</ele>
        <time>2010-01-01T01:21:26Z</time>
      </trkpt>
      <trkpt lat="45.92122" lon="6.21208">
        <ele>1052</ele>
        <time>2010-01-01T01:21:38Z</time>
      </trkpt>
      <trkpt lat="45.92098" lon="6.21208">
        <ele>1049</ele>
        <time>2010-01-01T01:21:47Z</time>
      </trkpt>
      <trkpt lat="45.9207" lon="6.21198">
        <ele>1048</ele>
        <time>2010-01-01T01:21:59Z</time>
      </trkpt>
      <trkpt lat="45.9206" lon="6.21201">
        <ele>1049</ele>
        <time>2010-01-01T01:22:03Z</time>
      </trkpt>
      <trkpt lat="45.92072" lon="6.21207">
        <ele>1048</ele>
        <time>2010-01-01T01:22:08Z</time>
      </trkpt>
      <trkpt lat="45.92071" lon="6.21211">
        <ele>1049</ele>
        <time>2010-01-01T01:22:09Z</time>
      </trkpt>
      <trkpt lat="45.92009" lon="6.21169">
        <ele>1055</ele>
        <time>2010-01-01T01:22:37Z</time>
      </trkpt>
      <trkpt lat="45.91955" lon="6.21153">
        <ele>1055</ele>
        <time>2010-01-01T01:22:59Z</time>
      </trkpt>
      <trkpt lat="45.91906" lon="6.21136">
        <ele>1052</ele>
        <time>2010-01-01T01:23:19Z</time>
      </trkpt>
      <trkpt lat="45.91881" lon="6.2112">
        <ele>1048</ele>
        <time>2010-01-01T01:23:30Z</time>
      </trkpt>
      <trkpt lat="45.91888" lon="6.21107">
        <ele>1046</ele>
        <time>2010-01-01T01:23:34Z</time>
      </trkpt>
      <trkpt lat="45.91897" lon="6.21073">
        <ele>1034</ele>
        <time>2010-01-01T01:23:44Z</time>
      </trkpt>
      <trkpt lat="45.91832" lon="6.2104">
        <ele>1019</ele>
        <time>2010-01-01T01:24:12Z</time>
      </trkpt>
      <trkpt lat="45.91799" lon="6.21042">
        <ele>1010</ele>
        <time>2010-01-01T01:24:25Z</time>
      </trkpt>
      <trkpt lat="45.91763" lon="6.21084">
        <ele>1020</ele>
        <time>2010-01-01T01:24:43Z</time>
      </trkpt>
      <trkpt lat="45.91759" lon="6.21048">
        <ele>1001</ele>
        <time>2010-01-01T01:24:53Z</time>
      </trkpt>
      <trkpt lat="45.91732" lon="6.21057">
        <ele>995</ele>
        <time>2010-01-01T01:25:05Z</time>
      </trkpt>
      <trkpt lat="45.91715" lon="6.21047">
        <ele>984</ele>
        <time>2010-01-01T01:25:12Z</time>
      </trkpt>
      <trkpt lat="45.91696" lon="6.21051">
        <ele>979</ele>
        <time>2010-01-01T01:25:19Z</time>
      </trkpt>
      <trkpt lat="45.91668" lon="6.21089">
        <ele>977</ele>
        <time>2010-01-01T01:25:35Z</time>
      </trkpt>
      <trkpt lat="45.91651" lon="6.21068">
        <ele>966</ele>
        <time>2010-01-01T01:25:44Z</time>
      </trkpt>
      <trkpt lat="45.91599" lon="6.20986">
        <ele>937</ele>
        <time>2010-01-01T01:26:15Z</time>
      </trkpt>
      <trkpt lat="45.91591" lon="6.20957">
        <ele>924</ele>
        <time>2010-01-01T01:26:24Z</time>
      </trkpt>
      <trkpt lat="45.91564" lon="6.20974">
        <ele>928</ele>
        <time>2010-01-01T01:26:35Z</time>
      </trkpt>
      <trkpt lat="45.91558" lon="6.20957">
        <ele>922</ele>
        <time>2010-01-01T01:26:41Z</time>
      </trkpt>
      <trkpt lat="45.91555" lon="6.20927">
        <ele>912</ele>
        <time>2010-01-01T01:26:49Z</time>
      </trkpt>
      <trkpt lat="45.91538" lon="6.20931">
        <ele>914</ele>
        <time>2010-01-01T01:26:56Z</time>
      </trkpt>
      <trkpt lat="45.91508" lon="6.20914">
        <ele>910</ele>
        <time>2010-01-01T01:27:09Z</time>
      </trkpt>
      <trkpt lat="45.91493" lon="6.20892">
        <ele>893</ele>
        <time>2010-01-01T01:27:18Z</time>
      </trkpt>
      <trkpt lat="45.91471" lon="6.20872">
        <ele>876</ele>
        <time>2010-01-01T01:27:28Z</time>
      </trkpt>
      <trkpt lat="45.91426" lon="6.20874">
        <ele>872</ele>
        <time>2010-01-01T01:27:46Z</time>
      </trkpt>
      <trkpt lat="45.9141" lon="6.20838">
        <ele>851</ele>
        <time>2010-01-01T01:27:58Z</time>
      </trkpt>
      <trkpt lat="45.91387" lon="6.20858">
        <ele>853</ele>
        <time>2010-01-01T01:28:09Z</time>
      </trkpt>
      <trkpt lat="45.91339" lon="6.20844">
        <ele>835</ele>
        <time>2010-01-01T01:28:28Z</time>
      </trkpt>
      <trkpt lat="45.91339" lon="6.20849">
        <ele>836</ele>
        <time>2010-01-01T01:28:30Z</time>
      </trkpt>
      <trkpt lat="45.91283" lon="6.20827">
        <ele>813</ele>
        <time>2010-01-01T01:28:53Z</time>
      </trkpt>
      <trkpt lat="45.91245" lon="6.2082">
        <ele>801</ele>
        <time>2010-01-01T01:29:08Z</time>
      </trkpt>
      <trkpt lat="45.91224" lon="6.20815">
        <ele>794</ele>
        <time>2010-01-01T01:29:17Z</time>
      </trkpt>
      <trkpt lat="45.91222" lon="6.20813">
        <ele>791</ele>
        <time>2010-01-01T01:29:18Z</time>
      </trkpt>
      <trkpt lat="45.91197" lon="6.2081">
        <ele>790</ele>
        <time>2010-01-01T01:29:28Z</time>
      </trkpt>
      <trkpt lat="45.91214" lon="6.20843">
        <ele>816</ele>
        <time>2010-01-01T01:29:39Z</time>
      </trkpt>
      <trkpt lat="45.91252" lon="6.20885">
        <ele>821</ele>
        <time>2010-01-01T01:29:58Z</time>
      </trkpt>
      <trkpt lat="45.91271" lon="6.20972">
        <ele>811</ele>
        <time>2010-01-01T01:30:24Z</time>
      </trkpt>
      <trkpt lat="45.91285" lon="6.21003">
        <ele>808</ele>
        <time>2010-01-01T01:30:34Z</time>
      </trkpt>
      <trkpt lat="45.91307" lon="6.21088">
        <ele>800</ele>
        <time>2010-01-01T01:31:00Z</time>
      </trkpt>
      <trkpt lat="45.91314" lon="6.21125">
        <ele>803</ele>
        <time>2010-01-01T01:31:10Z</time>
      </trkpt>
      <trkpt lat="45.91271" lon="6.21122">
        <ele>788</ele>
        <time>2010-01-01T01:31:27Z</time>
      </trkpt>
      <trkpt lat="45.91182" lon="6.21142">
        <ele>761</ele>
        <time>2010-01-01T01:32:04Z</time>
      </trkpt>
      <trkpt lat="45.91095" lon="6.21193">
        <ele>741</ele>
        <time>2010-01-01T01:32:41Z</time>
      </trkpt>
      <trkpt lat="45.9104" lon="6.21209">
        <ele>729</ele>
        <time>2010-01-01T01:33:04Z</time>
      </trkpt>
      <trkpt lat="45.90993" lon="6.21221">
        <ele>720</ele>
        <time>2010-01-01T01:33:23Z</time>
      </trkpt>
      <trkpt lat="45.90969" lon="6.21295">
        <ele>731</ele>
        <time>2010-01-01T01:33:46Z</time>
      </trkpt>
      <trkpt lat="45.90943" lon="6.21309">
        <ele>728</ele>
        <time>2010-01-01T01:33:57Z</time>
      </trkpt>
      <trkpt lat="45.90941" lon="6.21309">
        <ele>728</ele>
        <time>2010-01-01T01:33:57Z</time>
      </trkpt>
      <trkpt lat="45.90939" lon="6.21317">
        <ele>728</ele>
        <time>2010-01-01T01:34:00Z</time>
      </trkpt>
      <trkpt lat="45.9094" lon="6.21315">
        <ele>728</ele>
        <time>2010-01-01T01:34:01Z</time>
      </trkpt>
      <trkpt lat="45.90908" lon="6.21323">
        <ele>723</ele>
        <time>2010-01-01T01:34:14Z</time>
      </trkpt>
      <trkpt lat="45.90895" lon="6.21358">
        <ele>718</ele>
        <time>2010-01-01T01:34:25Z</time>
      </trkpt>
      <trkpt lat="45.90913" lon="6.21367">
        <ele>721</ele>
        <time>2010-01-01T01:34:32Z</time>
      </trkpt>
      <trkpt lat="45.90873" lon="6.21384">
        <ele>709</ele>
        <time>2010-01-01T01:34:49Z</time>
      </trkpt>
      <trkpt lat="45.90853" lon="6.21331">
        <ele>712</ele>
        <time>2010-01-01T01:35:06Z</time>
      </trkpt>
      <trkpt lat="45.9083" lon="6.21287">
        <ele>703</ele>
        <time>2010-01-01T01:35:21Z</time>
      </trkpt>
      <trkpt lat="45.90728" lon="6.21255">
        <ele>671</ele>
        <time>2010-01-01T01:36:03Z</time>
      </trkpt>
      <trkpt lat="45.90695" lon="6.21196">
        <ele>637</ele>
        <time>2010-01-01T01:36:24Z</time>
      </trkpt>
      <trkpt lat="45.90689" lon="6.2118">
        <ele>629</ele>
        <time>2010-01-01T01:36:29Z</time>
      </trkpt>
      <trkpt lat="45.90663" lon="6.21182">
        <ele>623</ele>
        <time>2010-01-01T01:36:40Z</time>
      </trkpt>
      <trkpt lat="45.90641" lon="6.21167">
        <ele>614</ele>
        <time>2010-01-01T01:36:49Z</time>
      </trkpt>
      <trkpt lat="45.90599" lon="6.2116">
        <ele>605</ele>
        <time>2010-01-01T01:37:06Z</time>
      </trkpt>
      <trkpt lat="45.90584" lon="6.21196">
        <ele>612</ele>
        <time>2010-01-01T01:37:18Z</time>
      </trkpt>
      <trkpt lat="45.906" lon="6.2123">
        <ele>625</ele>
        <time>2010-01-01T01:37:30Z</time>
      </trkpt>
      <trkpt lat="45.90617" lon="6.21283">
        <ele>637</ele>
        <time>2010-01-01T01:37:46Z</time>
      </trkpt>
      <trkpt lat="45.906" lon="6.21299">
        <ele>633</ele>
        <time>2010-01-01T01:37:54Z</time>
      </trkpt>
      <trkpt lat="45.90565" lon="6.21296">
        <ele>622</ele>
        <time>2010-01-01T01:38:08Z</time>
      </trkpt>
      <trkpt lat="45.90534" lon="6.21278">
        <ele>611</ele>
        <time>2010-01-01T01:38:21Z</time>
      </trkpt>
      <trkpt lat="45.90504" lon="6.21253">
        <ele>601</ele>
        <time>2010-01-01T01:38:35Z</time>
      </trkpt>
      <trkpt lat="45.90493" lon="6.21235">
        <ele>594</ele>
        <time>2010-01-01T01:38:42Z</time>
      </trkpt>
      <trkpt lat="45.90461" lon="6.21212">
        <ele>577</ele>
        <time>2010-01-01T01:38:56Z</time>
      </trkpt>
      <trkpt lat="45.90455" lon="6.21204">
        <ele>573</ele>
        <time>2010-01-01T01:38:59Z</time>
      </trkpt>
      <trkpt lat="45.90441" lon="6.21193">
        <ele>565</ele>
        <time>2010-01-01T01:39:06Z</time>
      </trkpt>
      <trkpt lat="45.90421" lon="6.21219">
        <ele>560</ele>
        <time>2010-01-01T01:39:17Z</time>
      </trkpt>
      <trkpt lat="45.90409" lon="6.21207">
        <ele>554</ele>
        <time>2010-01-01T01:39:23Z</time>
      </trkpt>
      <trkpt lat="45.90391" lon="6.21214">
        <ele>549</ele>
        <time>2010-01-01T01:39:30Z</time>
      </trkpt>
      <trkpt lat="45.90393" lon="6.21246">
        <ele>553</ele>
        <time>2010-01-01T01:39:39Z</time>
      </trkpt>
      <trkpt lat="45.9039" lon="6.21278">
        <ele>554</ele>
        <time>2010-01-01T01:39:48Z</time>
      </trkpt>
      <trkpt lat="45.9037" lon="6.2126">
        <ele>546</ele>
        <time>2010-01-01T01:39:58Z</time>
      </trkpt>
      <trkpt lat="45.90367" lon="6.21292">
        <ele>546</ele>
        <time>2010-01-01T01:40:06Z</time>
      </trkpt>
      <trkpt lat="45.90355" lon="6.21348">
        <ele>543</ele>
        <time>2010-01-01T01:40:23Z</time>
      </trkpt>
      <trkpt lat="45.90343" lon="6.21341">
        <ele>538</ele>
        <time>2010-01-01T01:40:28Z</time>
      </trkpt>
      <trkpt lat="45.90317" lon="6.21303">
        <ele>532</ele>
        <time>2010-01-01T01:40:43Z</time>
      </trkpt>
      <trkpt lat="45.90308" lon="6.21276">
        <ele>530</ele>
        <time>2010-01-01T01:40:51Z</time>
      </trkpt>
      <trkpt lat="45.90302" lon="6.21266">
        <ele>529</ele>
        <time>2010-01-01T01:40:55Z</time>
      </trkpt>
      <trkpt lat="45.9031" lon="6.21204">
        <ele>527</ele>
        <time>2010-01-01T01:41:13Z</time>
      </trkpt>
      <trkpt lat="45.90357" lon="6.21125">
        <ele>530</ele>
        <time>2010-01-01T01:41:41Z</time>
      </trkpt>
      <trkpt lat="45.90366" lon="6.21117">
        <ele>532</ele>
        <time>2010-01-01T01:41:46Z</time>
      </trkpt>
      <trkpt lat="45.90345" lon="6.21049">
        <ele>527</ele>
        <time>2010-01-01T01:42:07Z</time>
      </trkpt>
      <trkpt lat="45.90327" lon="6.20966">
        <ele>537</ele>
        <time>2010-01-01T01:42:31Z</time>
      </trkpt>
      <trkpt lat="45.90371" lon="6.20879">
        <ele>541</ele>
        <time>2010-01-01T01:43:01Z</time>
      </trkpt>
      <trkpt lat="45.90402" lon="6.20831">
        <ele>537</ele>
        <time>2010-01-01T01:43:19Z</time>
      </trkpt>
      <trkpt lat="45.90428" lon="6.20785">
        <ele>541</ele>
        <time>2010-01-01T01:43:36Z</time>
      </trkpt>
      <trkpt lat="45.90466" lon="6.20744">
        <ele>537</ele>
        <time>2010-01-01T01:43:54Z</time>
      </trkpt>
      <trkpt lat="45.90498" lon="6.20701">
        <ele>532</ele>
        <time>2010-01-01T01:44:12Z</time>
      </trkpt>
      <trkpt lat="45.90526" lon="6.20647">
        <ele>536</ele>
        <time>2010-01-01T01:44:31Z</time>
      </trkpt>
      <trkpt lat="45.90527" lon="6.20598">
        <ele>545</ele>
        <time>2010-01-01T01:44:44Z</time>
      </trkpt>
      <trkpt lat="45.90538" lon="6.20548">
        <ele>550</ele>
        <time>2010-01-01T01:44:59Z</time>
      </trkpt>
      <trkpt lat="45.90559" lon="6.20508">
        <ele>550</ele>
        <time>2010-01-01T01:45:13Z</time>
      </trkpt>
      <trkpt lat="45.90564" lon="6.20481">
        <ele>553</ele>
        <time>2010-01-01T01:45:21Z</time>
      </trkpt>
      <trkpt lat="45.90573" lon="6.20456">
        <ele>553</ele>
        <time>2010-01-01T01:45:29Z</time>
      </trkpt>
      <trkpt lat="45.90617" lon="6.20407">
        <ele>545</ele>
        <time>2010-01-01T01:45:51Z</time>
      </trkpt>
      <trkpt lat="45.90622" lon="6.20387">
        <ele>547</ele>
        <time>2010-01-01T01:45:57Z</time>
      </trkpt>
      <trkpt lat="45.90636" lon="6.20356">
        <ele>548</ele>
        <time>2010-01-01T01:46:07Z</time>
      </trkpt>
      <trkpt lat="45.90627" lon="6.20335">
        <ele>554</ele>
        <time>2010-01-01T01:46:14Z</time>
      </trkpt>
      <trkpt lat="45.90646" lon="6.20333">
        <ele>549</ele>
        <time>2010-01-01T01:46:21Z</time>
      </trkpt>
      <trkpt lat="45.90674" lon="6.20306">
        <ele>546</ele>
        <time>2010-01-01T01:46:35Z</time>
      </trkpt>
      <trkpt lat="45.90696" lon="6.20243">
        <ele>548</ele>
        <time>2010-01-01T01:46:55Z</time>
      </trkpt>
      <trkpt lat="45.90697" lon="6.20215">
        <ele>552</ele>
        <time>2010-01-01T01:47:03Z</time>
      </trkpt>
      <trkpt lat="45.90715" lon="6.20155">
        <ele>553</ele>
        <time>2010-01-01T01:47:21Z</time>
      </trkpt>
      <trkpt lat="45.90719" lon="6.20104">
        <ele>557</ele>
        <time>2010-01-01T01:47:35Z</time>
      </trkpt>
      <trkpt lat="45.90737" lon="6.2005">
        <ele>558</ele>
        <time>2010-01-01T01:47:52Z</time>
      </trkpt>
      <trkpt lat="45.9074" lon="6.20021">
        <ele>562</ele>
        <time>2010-01-01T01:48:00Z</time>
      </trkpt>
      <trkpt lat="45.90736" lon="6.20022">
        <ele>564</ele>
        <time>2010-01-01T01:48:01Z</time>
      </trkpt>
      <trkpt lat="45.90706" lon="6.20015">
        <ele>577</ele>
        <time>2010-01-01T01:48:14Z</time>
      </trkpt>
      <trkpt lat="45.90681" lon="6.19979">
        <ele>593</ele>
        <time>2010-01-01T01:48:28Z</time>
      </trkpt>
      <trkpt lat="45.90651" lon="6.19959">
        <ele>606</ele>
        <time>2010-01-01T01:48:41Z</time>
      </trkpt>
      <trkpt lat="45.90629" lon="6.1996">
        <ele>612</ele>
        <time>2010-01-01T01:48:50Z</time>
      </trkpt>
      <trkpt lat="45.90604" lon="6.19995">
        <ele>614</ele>
        <time>2010-01-01T01:49:04Z</time>
      </trkpt>
      <trkpt lat="45.90605" lon="6.20019">
        <ele>611</ele>
        <time>2010-01-01T01:49:11Z</time>
      </trkpt>
      <trkpt lat="45.90598" lon="6.20021">
        <ele>612</ele>
        <time>2010-01-01T01:49:13Z</time>
      </trkpt>
      <trkpt lat="45.90589" lon="6.20013">
        <ele>616</ele>
        <time>2010-01-01T01:49:17Z</time>
      </trkpt>
      <trkpt lat="45.90577" lon="6.19993">
        <ele>621</ele>
        <time>2010-01-01T01:49:25Z</time>
      </trkpt>
      <trkpt lat="45.90584" lon="6.19966">
        <ele>624</ele>
        <time>2010-01-01T01:49:33Z</time>
      </trkpt>
      <trkpt lat="45.90601" lon="6.19933">
        <ele>624</ele>
        <time>2010-01-01T01:49:44Z</time>
      </trkpt>
      <trkpt lat="45.90603" lon="6.19911">
        <ele>627</ele>
        <time>2010-01-01T01:49:50Z</time>
      </trkpt>
      <trkpt lat="45.906" lon="6.1987">
        <ele>634</ele>
        <time>2010-01-01T01:50:02Z</time>
      </trkpt>
      <trkpt lat="45.90604" lon="6.19841">
        <ele>637</ele>
        <time>2010-01-01T01:50:10Z</time>
      </trkpt>
      <trkpt lat="45.90619" lon="6.19829">
        <ele>635</ele>
        <time>2010-01-01T01:50:17Z</time>
      </trkpt>
      <trkpt lat="45.90629" lon="6.19799">
        <ele>637</ele>
        <time>2010-01-01T01:50:26Z</time>
      </trkpt>
      <trkpt lat="45.90626" lon="6.19745">
        <ele>648</ele>
        <time>2010-01-01T01:50:41Z</time>
      </trkpt>
      <trkpt lat="45.90632" lon="6.19713">
        <ele>651</ele>
        <time>2010-01-01T01:50:51Z</time>
      </trkpt>
      <trkpt lat="45.90651" lon="6.19678">
        <ele>651</ele>
        <time>2010-01-01T01:51:03Z</time>
      </trkpt>
      <trkpt lat="45.9065" lon="6.19648">
        <ele>657</ele>
        <time>2010-01-01T01:51:11Z</time>
      </trkpt>
      <trkpt lat="45.90599" lon="6.19649">
        <ele>671</ele>
        <time>2010-01-01T01:51:32Z</time>
      </trkpt>
      <trkpt lat="45.90594" lon="6.19634">
        <ele>675</ele>
        <time>2010-01-01T01:51:36Z</time>
      </trkpt>
      <trkpt lat="45.9058" lon="6.19625">
        <ele>680</ele>
        <time>2010-01-01T01:51:42Z</time>
      </trkpt>
      <trkpt lat="45.90591" lon="6.19596">
        <ele>682</ele>
        <time>2010-01-01T01:51:52Z</time>
      </trkpt>
      <trkpt lat="45.90622" lon="6.1958">
        <ele>678</ele>
        <time>2010-01-01T01:52:05Z</time>
      </trkpt>
      <trkpt lat="45.90641" lon="6.19586">
        <ele>672</ele>
        <time>2010-01-01T01:52:12Z</time>
      </trkpt>
      <trkpt lat="45.90702" lon="6.19592">
        <ele>660</ele>
        <time>2010-01-01T01:52:37Z</time>
      </trkpt>
      <trkpt lat="45.90746" lon="6.19602">
        <ele>652</ele>
        <time>2010-01-01T01:52:54Z</time>
      </trkpt>
      <trkpt lat="45.90778" lon="6.196">
        <ele>650</ele>
        <time>2010-01-01T01:53:07Z</time>
      </trkpt>
      <trkpt lat="45.90806" lon="6.19593">
        <ele>651</ele>
        <time>2010-01-01T01:53:19Z</time>
      </trkpt>
      <trkpt lat="45.90824" lon="6.19582">
        <ele>655</ele>
        <time>2010-01-01T01:53:26Z</time>
      </trkpt>
      <trkpt lat="45.90861" lon="6.19574">
        <ele>660</ele>
        <time>2010-01-01T01:53:41Z</time>
      </trkpt>
      <trkpt lat="45.90892" lon="6.19563">
        <ele>667</ele>
        <time>2010-01-01T01:53:54Z</time>
      </trkpt>
      <trkpt lat="45.90901" lon="6.19552">
        <ele>673</ele>
        <time>2010-01-01T01:53:59Z</time>
      </trkpt>
      <trkpt lat="45.90955" lon="6.19553">
        <ele>675</ele>
        <time>2010-01-01T01:54:21Z</time>
      </trkpt>
      <trkpt lat="45.90996" lon="6.1956">
        <ele>673</ele>
        <time>2010-01-01T01:54:37Z</time>
      </trkpt>
      <trkpt lat="45.91106" lon="6.19554">
        <ele>675</ele>
        <time>2010-01-01T01:55:21Z</time>
      </trkpt>
      <trkpt lat="45.91136" lon="6.19547">
        <ele>677</ele>
        <time>2010-01-01T01:55:34Z</time>
      </trkpt>
      <trkpt lat="45.91163" lon="6.19534">
        <ele>680</ele>
        <time>2010-01-01T01:55:45Z</time>
      </trkpt>
      <trkpt lat="45.91184" lon="6.19521">
        <ele>683</ele>
        <time>2010-01-01T01:55:54Z</time>
      </trkpt>
      <trkpt lat="45.91202" lon="6.19517">
        <ele>684</ele>
        <time>2010-01-01T01:56:01Z</time>
      </trkpt>
      <trkpt lat="45.91217" lon="6.19499">
        <ele>688</ele>
        <time>2010-01-01T01:56:09Z</time>
      </trkpt>
      <trkpt lat="45.91291" lon="6.19457">
        <ele>687</ele>
        <time>2010-01-01T01:56:41Z</time>
      </trkpt>
      <trkpt lat="45.91312" lon="6.19446">
        <ele>686</ele>
        <time>2010-01-01T01:56:50Z</time>
      </trkpt>
      <trkpt lat="45.91323" lon="6.19448">
        <ele>683</ele>
        <time>2010-01-01T01:56:55Z</time>
      </trkpt>
      <trkpt lat="45.9132" lon="6.1945">
        <ele>684</ele>
        <time>2010-01-01T01:56:56Z</time>
      </trkpt>
      <trkpt lat="45.91316" lon="6.1944">
        <ele>686</ele>
        <time>2010-01-01T01:56:59Z</time>
      </trkpt>
      <trkpt lat="45.91308" lon="6.19434">
        <ele>688</ele>
        <time>2010-01-01T01:57:03Z</time>
      </trkpt>
      <trkpt lat="45.91292" lon="6.19425">
        <ele>693</ele>
        <time>2010-01-01T01:57:10Z</time>
      </trkpt>
      <trkpt lat="45.91254" lon="6.19429">
        <ele>699</ele>
        <time>2010-01-01T01:57:25Z</time>
      </trkpt>
      <trkpt lat="45.91231" lon="6.19437">
        <ele>701</ele>
        <time>2010-01-01T01:57:34Z</time>
      </trkpt>
      <trkpt lat="45.91194" lon="6.19443">
        <ele>705</ele>
        <time>2010-01-01T01:57:49Z</time>
      </trkpt>
      <trkpt lat="45.91148" lon="6.19453">
        <ele>707</ele>
        <time>2010-01-01T01:58:08Z</time>
      </trkpt>
      <trkpt lat="45.91099" lon="6.19451">
        <ele>712</ele>
        <time>2010-01-01T01:58:28Z</time>
      </trkpt>
      <trkpt lat="45.91061" lon="6.19458">
        <ele>712</ele>
        <time>2010-01-01T01:58:43Z</time>
      </trkpt>
      <trkpt lat="45.91036" lon="6.19453">
        <ele>715</ele>
        <time>2010-01-01T01:58:53Z</time>
      </trkpt>
      <trkpt lat="45.91016" lon="6.19444">
        <ele>719</ele>
        <time>2010-01-01T01:59:01Z</time>
      </trkpt>
      <trkpt lat="45.90998" lon="6.19444">
        <ele>719</ele>
        <time>2010-01-01T01:59:09Z</time>
      </trkpt>
      <trkpt lat="45.90977" lon="6.19433">
        <ele>723</ele>
        <time>2010-01-01T01:59:18Z</time>
      </trkpt>
      <trkpt lat="45.90974" lon="6.19428">
        <ele>724</ele>
        <time>2010-01-01T01:59:20Z</time>
      </trkpt>
      <trkpt lat="45.90976" lon="6.19423">
        <ele>726</ele>
        <time>2010-01-01T01:59:21Z</time>
      </trkpt>
      <trkpt lat="45.91014" lon="6.19414">
        <ele>729</ele>
        <time>2010-01-01T01:59:37Z</time>
      </trkpt>
      <trkpt lat="45.91047" lon="6.19398">
        <ele>731</ele>
        <time>2010-01-01T01:59:51Z</time>
      </trkpt>
      <trkpt lat="45.91082" lon="6.19403">
        <ele>728</ele>
        <time>2010-01-01T02:00:05Z</time>
      </trkpt>
      <trkpt lat="45.91103" lon="6.19383">
        <ele>731</ele>
        <time>2010-01-01T02:00:15Z</time>
      </trkpt>
      <trkpt lat="45.91117" lon="6.1938">
        <ele>729</ele>
        <time>2010-01-01T02:00:20Z</time>
      </trkpt>
      <trkpt lat="45.91139" lon="6.19365">
        <ele>730</ele>
        <time>2010-01-01T02:00:30Z</time>
      </trkpt>
      <trkpt lat="45.91139" lon="6.19352">
        <ele>732</ele>
        <time>2010-01-01T02:00:34Z</time>
      </trkpt>
      <trkpt lat="45.91155" lon="6.19335">
        <ele>734</ele>
        <time>2010-01-01T02:00:42Z</time>
      </trkpt>
      <trkpt lat="45.91154" lon="6.19313">
        <ele>737</ele>
        <time>2010-01-01T02:00:48Z</time>
      </trkpt>
      <trkpt lat="45.9117" lon="6.19273">
        <ele>741</ele>
        <time>2010-01-01T02:01:01Z</time>
      </trkpt>
      <trkpt lat="45.91173" lon="6.19253">
        <ele>744</ele>
        <time>2010-01-01T02:01:06Z</time>
      </trkpt>
      <trkpt lat="45.91175" lon="6.19213">
        <ele>750</ele>
        <time>2010-01-01T02:01:17Z</time>
      </trkpt>
      <trkpt lat="45.91195" lon="6.19158">
        <ele>755</ele>
        <time>2010-01-01T02:01:35Z</time>
      </trkpt>
      <trkpt lat="45.9123" lon="6.1915">
        <ele>750</ele>
        <time>2010-01-01T02:01:49Z</time>
      </trkpt>
      <trkpt lat="45.91271" lon="6.19144">
        <ele>742</ele>
        <time>2010-01-01T02:02:05Z</time>
      </trkpt>
      <trkpt lat="45.91317" lon="6.19103">
        <ele>741</ele>
        <time>2010-01-01T02:02:27Z</time>
      </trkpt>
      <trkpt lat="45.91393" lon="6.19026">
        <ele>732</ele>
        <time>2010-01-01T02:03:04Z</time>
      </trkpt>
      <trkpt lat="45.91419" lon="6.18981">
        <ele>727</ele>
        <time>2010-01-01T02:03:21Z</time>
      </trkpt>
      <trkpt lat="45.91431" lon="6.18899">
        <ele>723</ele>
        <time>2010-01-01T02:03:44Z</time>
      </trkpt>
      <trkpt lat="45.91435" lon="6.18851">
        <ele>720</ele>
        <time>2010-01-01T02:03:57Z</time>
      </trkpt>
      <trkpt lat="45.91457" lon="6.18778">
        <ele>713</ele>
        <time>2010-01-01T02:04:19Z</time>
      </trkpt>
      <trkpt lat="45.91475" lon="6.18684">
        <ele>712</ele>
        <time>2010-01-01T02:04:47Z</time>
      </trkpt>
      <trkpt lat="45.91474" lon="6.18613">
        <ele>716</ele>
        <time>2010-01-01T02:05:06Z</time>
      </trkpt>
      <trkpt lat="45.91481" lon="6.18523">
        <ele>715</ele>
        <time>2010-01-01T02:05:32Z</time>
      </trkpt>
      <trkpt lat="45.9149" lon="6.18476">
        <ele>712</ele>
        <time>2010-01-01T02:05:45Z</time>
      </trkpt>
      <trkpt lat="45.915" lon="6.18438">
        <ele>708</ele>
        <time>2010-01-01T02:05:57Z</time>
      </trkpt>
      <trkpt lat="45.91497" lon="6.18426">
        <ele>709</ele>
        <time>2010-01-01T02:06:00Z</time>
      </trkpt>
      <trkpt lat="45.91458" lon="6.18409">
        <ele>725</ele>
        <time>2010-01-01T02:06:16Z</time>
      </trkpt>
      <trkpt lat="45.91458" lon="6.18393">
        <ele>726</ele>
        <time>2010-01-01T02:06:21Z</time>
      </trkpt>
      <trkpt lat="45.91444" lon="6.18365">
        <ele>732</ele>
        <time>2010-01-01T02:06:30Z</time>
      </trkpt>
      <trkpt lat="45.91447" lon="6.18325">
        <ele>733</ele>
        <time>2010-01-01T02:06:41Z</time>
      </trkpt>
      <trkpt lat="45.9145" lon="6.1833">
        <ele>731</ele>
        <time>2010-01-01T02:06:43Z</time>
      </trkpt>
      <trkpt lat="45.91455" lon="6.18293">
        <ele>733</ele>
        <time>2010-01-01T02:06:54Z</time>
      </trkpt>
      <trkpt lat="45.91456" lon="6.18291">
        <ele>733</ele>
        <time>2010-01-01T02:06:55Z</time>
      </trkpt>
      <trkpt lat="45.91449" lon="6.18271">
        <ele>736</ele>
        <time>2010-01-01T02:07:01Z</time>
      </trkpt>
      <trkpt lat="45.91443" lon="6.18256">
        <ele>739</ele>
        <time>2010-01-01T02:07:06Z</time>
      </trkpt>
      <trkpt lat="45.91431" lon="6.18238">
        <ele>743</ele>
        <time>2010-01-01T02:07:13Z</time>
      </trkpt>
      <trkpt lat="45.91409" lon="6.18174">
        <ele>756</ele>
        <time>2010-01-01T02:07:32Z</time>
      </trkpt>
      <trkpt lat="45.91396" lon="6.18149">
        <ele>761</ele>
        <time>2010-01-01T02:07:41Z</time>
      </trkpt>
      <trkpt lat="45.91382" lon="6.18112">
        <ele>767</ele>
        <time>2010-01-01T02:07:53Z</time>
      </trkpt>
      <trkpt lat="45.91357" lon="6.18102">
        <ele>772</ele>
        <time>2010-01-01T02:08:04Z</time>
      </trkpt>
      <trkpt lat="45.91345" lon="6.18116">
        <ele>773</ele>
        <time>2010-01-01T02:08:10Z</time>
      </trkpt>
      <trkpt lat="45.91347" lon="6.18113">
        <ele>772</ele>
        <time>2010-01-01T02:08:11Z</time>
      </trkpt>
      <trkpt lat="45.91349" lon="6.18102">
        <ele>773</ele>
        <time>2010-01-01T02:08:14Z</time>
      </trkpt>
      <trkpt lat="45.91351" lon="6.18108">
        <ele>772</ele>
        <time>2010-01-01T02:08:15Z</time>
      </trkpt>
      <trkpt lat="45.9135" lon="6.1812">
        <ele>771</ele>
        <time>2010-01-01T02:08:19Z</time>
      </trkpt>
      <trkpt lat="45.91352" lon="6.18114">
        <ele>771</ele>
        <time>2010-01-01T02:08:21Z</time>
      </trkpt>
      <trkpt lat="45.91351" lon="6.18112">
        <ele>772</ele>
        <time>2010-01-01T02:08:22Z</time>
      </trkpt>
      <trkpt lat="45.91353" lon="6.18118">
        <ele>771</ele>
        <time>2010-01-01T02:08:24Z</time>
      </trkpt>
      <trkpt lat="45.91357" lon="6.18115">
        <ele>771</ele>
        <time>2010-01-01T02:08:25Z</time>
      </trkpt>
      <trkpt lat="45.91359" lon="6.18111">
        <ele>771</ele>
        <time>2010-01-01T02:08:27Z</time>
      </trkpt>
      <trkpt lat="45.91363" lon="6.1811">
        <ele>770</ele>
        <time>2010-01-01T02:08:28Z</time>
      </trkpt>
      <trkpt lat="45.91365" lon="6.18099">
        <ele>771</ele>
        <time>2010-01-01T02:08:31Z</time>
      </trkpt>
      <trkpt lat="45.91374" lon="6.18075">
        <ele>771</ele>
        <time>2010-01-01T02:08:39Z</time>
      </trkpt>
      <trkpt lat="45.91394" lon="6.18042">
        <ele>772</ele>
        <time>2010-01-01T02:08:51Z</time>
      </trkpt>
      <trkpt lat="45.91411" lon="6.1802">
        <ele>772</ele>
        <time>2010-01-01T02:09:00Z</time>
      </trkpt>
      <trkpt lat="45.91451" lon="6.17991">
        <ele>767</ele>
        <time>2010-01-01T02:09:18Z</time>
      </trkpt>
      <trkpt lat="45.91448" lon="6.17972">
        <ele>769</ele>
        <time>2010-01-01T02:09:24Z</time>
      </trkpt>
      <trkpt lat="45.91459" lon="6.1793">
        <ele>770</ele>
        <time>2010-01-01T02:09:36Z</time>
      </trkpt>
      <trkpt lat="45.91445" lon="6.17906">
        <ele>776</ele>
        <time>2010-01-01T02:09:45Z</time>
      </trkpt>
      <trkpt lat="45.91441" lon="6.17915">
        <ele>776</ele>
        <time>2010-01-01T02:09:48Z</time>
      </trkpt>
      <trkpt lat="45.91439" lon="6.17915">
        <ele>777</ele>
        <time>2010-01-01T02:09:49Z</time>
      </trkpt>
      <trkpt lat="45.91442" lon="6.17908">
        <ele>776</ele>
        <time>2010-01-01T02:09:51Z</time>
      </trkpt>
      <trkpt lat="45.91431" lon="6.17903">
        <ele>780</ele>
        <time>2010-01-01T02:09:55Z</time>
      </trkpt>
      <trkpt lat="45.91423" lon="6.17917">
        <ele>781</ele>
        <time>2010-01-01T02:10:00Z</time>
      </trkpt>
      <trkpt lat="45.91392" lon="6.17929">
        <ele>788</ele>
        <time>2010-01-01T02:10:13Z</time>
      </trkpt>
      <trkpt lat="45.91356" lon="6.17931">
        <ele>797</ele>
        <time>2010-01-01T02:10:28Z</time>
      </trkpt>
      <trkpt lat="45.91335" lon="6.17924">
        <ele>804</ele>
        <time>2010-01-01T02:10:36Z</time>
      </trkpt>
      <trkpt lat="45.91277" lon="6.17902">
        <ele>816</ele>
        <time>2010-01-01T02:11:00Z</time>
      </trkpt>
      <trkpt lat="45.91233" lon="6.17846">
        <ele>831</ele>
        <time>2010-01-01T02:11:24Z</time>
      </trkpt>
      <trkpt lat="45.91191" lon="6.17821">
        <ele>838</ele>
        <time>2010-01-01T02:11:42Z</time>
      </trkpt>
      <trkpt lat="45.91158" lon="6.17784">
        <ele>843</ele>
        <time>2010-01-01T02:11:59Z</time>
      </trkpt>
      <trkpt lat="45.9115" lon="6.1778">
        <ele>844</ele>
        <time>2010-01-01T02:12:02Z</time>
      </trkpt>
      <trkpt lat="45.91148" lon="6.17769">
        <ele>845</ele>
        <time>2010-01-01T02:12:06Z</time>
      </trkpt>
      <trkpt lat="45.91133" lon="6.17729">
        <ele>847</ele>
        <time>2010-01-01T02:12:18Z</time>
      </trkpt>
      <trkpt lat="45.91125" lon="6.17682">
        <ele>849</ele>
        <time>2010-01-01T02:12:32Z</time>
      </trkpt>
      <trkpt lat="45.91116" lon="6.17652">
        <ele>848</ele>
        <time>2010-01-01T02:12:41Z</time>
      </trkpt>
      <trkpt lat="45.91107" lon="6.17639">
        <ele>846</ele>
        <time>2010-01-01T02:12:46Z</time>
      </trkpt>
      <trkpt lat="45.91083" lon="6.17627">
        <ele>840</ele>
        <time>2010-01-01T02:12:56Z</time>
      </trkpt>
      <trkpt lat="45.91077" lon="6.17581">
        <ele>841</ele>
        <time>2010-01-01T02:13:09Z</time>
      </trkpt>
      <trkpt lat="45.91067" lon="6.1758">
        <ele>843</ele>
        <time>2010-01-01T02:13:13Z</time>
      </trkpt>
      <trkpt lat="45.91052" lon="6.17587">
        <ele>848</ele>
        <time>2010-01-01T02:13:19Z</time>
      </trkpt>
      <trkpt lat="45.91049" lon="6.17576">
        <ele>848</ele>
        <time>2010-01-01T02:13:23Z</time>
      </trkpt>
      <trkpt lat="45.9104" lon="6.17567">
        <ele>850</ele>
        <time>2010-01-01T02:13:27Z</time>
      </trkpt>
      <trkpt lat="45.91033" lon="6.17556">
        <ele>852</ele>
        <time>2010-01-01T02:13:31Z</time>
      </trkpt>
      <trkpt lat="45.91036" lon="6.17538">
        <ele>850</ele>
        <time>2010-01-01T02:13:36Z</time>
      </trkpt>
      <trkpt lat="45.91032" lon="6.1752">
        <ele>850</ele>
        <time>2010-01-01T02:13:42Z</time>
      </trkpt>
      <trkpt lat="45.91043" lon="6.17514">
        <ele>847</ele>
        <time>2010-01-01T02:13:46Z</time>
      </trkpt>
      <trkpt lat="45.9104" lon="6.17509">
        <ele>848</ele>
        <time>2010-01-01T02:13:48Z</time>
      </trkpt>
      <trkpt lat="45.91038" lon="6.17514">
        <ele>848</ele>
        <time>2010-01-01T02:13:50Z</time>
      </trkpt>
      <trkpt lat="45.91041" lon="6.17513">
        <ele>848</ele>
        <time>2010-01-01T02:13:51Z</time>
      </trkpt>
      <trkpt lat="45.91046" lon="6.17505">
        <ele>846</ele>
        <time>2010-01-01T02:13:54Z</time>
      </trkpt>
      <trkpt lat="45.91048" lon="6.17499">
        <ele>846</ele>
        <time>2010-01-01T02:13:56Z</time>
      </trkpt>
      <trkpt lat="45.9104" lon="6.17469">
        <ele>848</ele>
        <time>2010-01-01T02:14:05Z</time>
      </trkpt>
      <trkpt lat="45.91035" lon="6.17469">
        <ele>849</ele>
        <time>2010-01-01T02:14:07Z</time>
      </trkpt>
      <trkpt lat="45.91034" lon="6.17466">
        <ele>850</ele>
        <time>2010-01-01T02:14:08Z</time>
      </trkpt>
      <trkpt lat="45.90988" lon="6.1744">
        <ele>862</ele>
        <time>2010-01-01T02:14:27Z</time>
      </trkpt>
      <trkpt lat="45.90962" lon="6.17403">
        <ele>871</ele>
        <time>2010-01-01T02:14:42Z</time>
      </trkpt>
      <trkpt lat="45.90945" lon="6.17381">
        <ele>879</ele>
        <time>2010-01-01T02:14:51Z</time>
      </trkpt>
      <trkpt lat="45.90913" lon="6.17347">
        <ele>894</ele>
        <time>2010-01-01T02:15:07Z</time>
      </trkpt>
      <trkpt lat="45.90887" lon="6.1733">
        <ele>903</ele>
        <time>2010-01-01T02:15:19Z</time>
      </trkpt>
      <trkpt lat="45.90883" lon="6.17296">
        <ele>910</ele>
        <time>2010-01-01T02:15:28Z</time>
      </trkpt>
      <trkpt lat="45.90851" lon="6.17243">
        <ele>921</ele>
        <time>2010-01-01T02:15:48Z</time>
      </trkpt>
      <trkpt lat="45.90836" lon="6.17249">
        <ele>923</ele>
        <time>2010-01-01T02:15:54Z</time>
      </trkpt>
      <trkpt lat="45.90833" lon="6.17247">
        <ele>923</ele>
        <time>2010-01-01T02:15:55Z</time>
      </trkpt>
      <trkpt lat="45.90832" lon="6.1725">
        <ele>923</ele>
        <time>2010-01-01T02:15:56Z</time>
      </trkpt>
      <trkpt lat="45.90807" lon="6.17209">
        <ele>920</ele>
        <time>2010-01-01T02:16:12Z</time>
      </trkpt>
      <trkpt lat="45.90774" lon="6.1716">
        <ele>909</ele>
        <time>2010-01-01T02:16:31Z</time>
      </trkpt>
      <trkpt lat="45.9073" lon="6.17108">
        <ele>890</ele>
        <time>2010-01-01T02:16:53Z</time>
      </trkpt>
      <trkpt lat="45.9072" lon="6.17089">
        <ele>885</ele>
        <time>2010-01-01T02:17:00Z</time>
      </trkpt>
      <trkpt lat="45.90694" lon="6.1708">
        <ele>880</ele>
        <time>2010-01-01T02:17:11Z</time>
      </trkpt>
      <trkpt lat="45.90711" lon="6.17069">
        <ele>879</ele>
        <time>2010-01-01T02:17:18Z</time>
      </trkpt>
      <trkpt lat="45.907" lon="6.17052">
        <ele>872</ele>
        <time>2010-01-01T02:17:25Z</time>
      </trkpt>
      <trkpt lat="45.90689" lon="6.17055">
        <ele>872</ele>
        <time>2010-01-01T02:17:29Z</time>
      </trkpt>
      <trkpt lat="45.90701" lon="6.17041">
        <ele>869</ele>
        <time>2010-01-01T02:17:35Z</time>
      </trkpt>
      <trkpt lat="45.90719" lon="6.17044">
        <ele>872</ele>
        <time>2010-01-01T02:17:42Z</time>
      </trkpt>
      <trkpt lat="45.90689" lon="6.17019">
        <ele>861</ele>
        <time>2010-01-01T02:17:56Z</time>
      </trkpt>
      <trkpt lat="45.90679" lon="6.17021">
        <ele>860</ele>
        <time>2010-01-01T02:18:00Z</time>
      </trkpt>
      <trkpt lat="45.90679" lon="6.1701">
        <ele>856</ele>
        <time>2010-01-01T02:18:03Z</time>
      </trkpt>
      <trkpt lat="45.90695" lon="6.16999">
        <ele>856</ele>
        <time>2010-01-01T02:18:11Z</time>
      </trkpt>
      <trkpt lat="45.90681" lon="6.16997">
        <ele>852</ele>
        <time>2010-01-01T02:18:16Z</time>
      </trkpt>
      <trkpt lat="45.90695" lon="6.16988">
        <ele>852</ele>
        <time>2010-01-01T02:18:22Z</time>
      </trkpt>
      <trkpt lat="45.90681" lon="6.16994">
        <ele>851</ele>
        <time>2010-01-01T02:18:28Z</time>
      </trkpt>
      <trkpt lat="45.9069" lon="6.16983">
        <ele>849</ele>
        <time>2010-01-01T02:18:33Z</time>
      </trkpt>
      <trkpt lat="45.90681" lon="6.1698">
        <ele>846</ele>
        <time>2010-01-01T02:18:37Z</time>
      </trkpt>
      <trkpt lat="45.90664" lon="6.16979">
        <ele>843</ele>
        <time>2010-01-01T02:18:43Z</time>
      </trkpt>
      <trkpt lat="45.90644" lon="6.16976">
        <ele>841</ele>
        <time>2010-01-01T02:18:52Z</time>
      </trkpt>
      <trkpt lat="45.90614" lon="6.16943">
        <ele>823</ele>
        <time>2010-01-01T02:19:07Z</time>
      </trkpt>
      <trkpt lat="45.90657" lon="6.16942">
        <ele>829</ele>
        <time>2010-01-01T02:19:24Z</time>
      </trkpt>
      <trkpt lat="45.90678" lon="6.16916">
        <ele>822</ele>
        <time>2010-01-01T02:19:35Z</time>
      </trkpt>
      <trkpt lat="45.90699" lon="6.1687">
        <ele>806</ele>
        <time>2010-01-01T02:19:51Z</time>
      </trkpt>
      <trkpt lat="45.90733" lon="6.16831">
        <ele>788</ele>
        <time>2010-01-01T02:20:08Z</time>
      </trkpt>
      <trkpt lat="45.90697" lon="6.16827">
        <ele>786</ele>
        <time>2010-01-01T02:20:23Z</time>
      </trkpt>
      <trkpt lat="45.90675" lon="6.1684">
        <ele>792</ele>
        <time>2010-01-01T02:20:32Z</time>
      </trkpt>
      <trkpt lat="45.90659" lon="6.16847">
        <ele>793</ele>
        <time>2010-01-01T02:20:39Z</time>
      </trkpt>
      <trkpt lat="45.90696" lon="6.16797">
        <ele>768</ele>
        <time>2010-01-01T02:20:59Z</time>
      </trkpt>
      <trkpt lat="45.90687" lon="6.16795">
        <ele>766</ele>
        <time>2010-01-01T02:21:03Z</time>
      </trkpt>
      <trkpt lat="45.90663" lon="6.16798">
        <ele>768</ele>
        <time>2010-01-01T02:21:12Z</time>
      </trkpt>
      <trkpt lat="45.90654" lon="6.16815">
        <ele>776</ele>
        <time>2010-01-01T02:21:18Z</time>
      </trkpt>
      <trkpt lat="45.90651" lon="6.16815">
        <ele>775</ele>
        <time>2010-01-01T02:21:19Z</time>
      </trkpt>
      <trkpt lat="45.90648" lon="6.16809">
        <ele>771</ele>
        <time>2010-01-01T02:21:21Z</time>
      </trkpt>
      <trkpt lat="45.90622" lon="6.1684">
        <ele>781</ele>
        <time>2010-01-01T02:21:35Z</time>
      </trkpt>
      <trkpt lat="45.906" lon="6.16843">
        <ele>777</ele>
        <time>2010-01-01T02:21:44Z</time>
      </trkpt>
      <trkpt lat="45.90563" lon="6.16827">
        <ele>765</ele>
        <time>2010-01-01T02:21:59Z</time>
      </trkpt>
      <trkpt lat="45.90533" lon="6.16826">
        <ele>765</ele>
        <time>2010-01-01T02:22:11Z</time>
      </trkpt>
      <trkpt lat="45.90502" lon="6.16809">
        <ele>757</ele>
        <time>2010-01-01T02:22:24Z</time>
      </trkpt>
      <trkpt lat="45.90489" lon="6.16795">
        <ele>751</ele>
        <time>2010-01-01T02:22:31Z</time>
      </trkpt>
      <trkpt lat="45.90461" lon="6.16787">
        <ele>751</ele>
        <time>2010-01-01T02:22:42Z</time>
      </trkpt>
      <trkpt lat="45.90429" lon="6.16788">
        <ele>756</ele>
        <time>2010-01-01T02:22:55Z</time>
      </trkpt>
      <trkpt lat="45.9038" lon="6.16765">
        <ele>750</ele>
        <time>2010-01-01T02:23:16Z</time>
      </trkpt>
      <trkpt lat="45.90338" lon="6.16755">
        <ele>751</ele>
        <time>2010-01-01T02:23:33Z</time>
      </trkpt>
      <trkpt lat="45.90308" lon="6.16751">
        <ele>754</ele>
        <time>2010-01-01T02:23:45Z</time>
      </trkpt>
      <trkpt lat="45.90233" lon="6.16704">
        <ele>738</ele>
        <time>2010-01-01T02:24:18Z</time>
      </trkpt>
      <trkpt lat="45.90188" lon="6.1669">
        <ele>734</ele>
        <time>2010-01-01T02:24:36Z</time>
      </trkpt>
      <trkpt lat="45.90146" lon="6.16654">
        <ele>716</ele>
        <time>2010-01-01T02:24:56Z</time>
      </trkpt>
      <trkpt lat="45.90112" lon="6.16629">
        <ele>703</ele>
        <time>2010-01-01T02:25:11Z</time>
      </trkpt>
      <trkpt lat="45.90046" lon="6.16579">
        <ele>672</ele>
        <time>2010-01-01T02:25:41Z</time>
      </trkpt>
      <trkpt lat="45.90041" lon="6.16573">
        <ele>669</ele>
        <time>2010-01-01T02:25:44Z</time>
      </trkpt>
      <trkpt lat="45.89966" lon="6.16535">
        <ele>630</ele>
        <time>2010-01-01T02:26:16Z</time>
      </trkpt>
      <trkpt lat="45.89941" lon="6.16534">
        <ele>618</ele>
        <time>2010-01-01T02:26:25Z</time>
      </trkpt>
      <trkpt lat="45.89938" lon="6.16519">
        <ele>613</ele>
        <time>2010-01-01T02:26:30Z</time>
      </trkpt>
      <trkpt lat="45.89953" lon="6.16501">
        <ele>614</ele>
        <time>2010-01-01T02:26:38Z</time>
      </trkpt>
      <trkpt lat="45.9002" lon="6.16499">
        <ele>636</ele>
        <time>2010-01-01T02:27:04Z</time>
      </trkpt>
      <trkpt lat="45.90053" lon="6.16473">
        <ele>629</ele>
        <time>2010-01-01T02:27:20Z</time>
      </trkpt>
      <trkpt lat="45.90087" lon="6.16476">
        <ele>634</ele>
        <time>2010-01-01T02:27:33Z</time>
      </trkpt>
      <trkpt lat="45.90133" lon="6.16486">
        <ele>637</ele>
        <time>2010-01-01T02:27:52Z</time>
      </trkpt>
      <trkpt lat="45.90254" lon="6.16502">
        <ele>627</ele>
        <time>2010-01-01T02:28:40Z</time>
      </trkpt>
      <trkpt lat="45.9028" lon="6.16513">
        <ele>628</ele>
        <time>2010-01-01T02:28:51Z</time>
      </trkpt>
      <trkpt lat="45.90303" lon="6.1652">
        <ele>628</ele>
        <time>2010-01-01T02:29:01Z</time>
      </trkpt>
      <trkpt lat="45.9033" lon="6.16519">
        <ele>623</ele>
        <time>2010-01-01T02:29:12Z</time>
      </trkpt>
      <trkpt lat="45.9036" lon="6.16537">
        <ele>629</ele>
        <time>2010-01-01T02:29:25Z</time>
      </trkpt>
      <trkpt lat="45.90393" lon="6.16537">
        <ele>624</ele>
        <time>2010-01-01T02:29:38Z</time>
      </trkpt>
      <trkpt lat="45.9044" lon="6.16543">
        <ele>621</ele>
        <time>2010-01-01T02:29:57Z</time>
      </trkpt>
      <trkpt lat="45.90467" lon="6.16554">
        <ele>623</ele>
        <time>2010-01-01T02:30:08Z</time>
      </trkpt>
      <trkpt lat="45.90496" lon="6.16561">
        <ele>623</ele>
        <time>2010-01-01T02:30:20Z</time>
      </trkpt>
      <trkpt lat="45.90524" lon="6.16562">
        <ele>621</ele>
        <time>2010-01-01T02:30:31Z</time>
      </trkpt>
      <trkpt lat="45.90528" lon="6.16552">
        <ele>615</ele>
        <time>2010-01-01T02:30:34Z</time>
      </trkpt>
      <trkpt lat="45.90552" lon="6.16555">
        <ele>614</ele>
        <time>2010-01-01T02:30:44Z</time>
      </trkpt>
      <trkpt lat="45.90551" lon="6.16543">
        <ele>608</ele>
        <time>2010-01-01T02:30:47Z</time>
      </trkpt>
      <trkpt lat="45.90554" lon="6.16538">
        <ele>605</ele>
        <time>2010-01-01T02:30:49Z</time>
      </trkpt>
      <trkpt lat="45.90549" lon="6.16528">
        <ele>600</ele>
        <time>2010-01-01T02:30:52Z</time>
      </trkpt>
      <trkpt lat="45.90549" lon="6.16524">
        <ele>598</ele>
        <time>2010-01-01T02:30:54Z</time>
      </trkpt>
      <trkpt lat="45.90507" lon="6.16505">
        <ele>592</ele>
        <time>2010-01-01T02:31:11Z</time>
      </trkpt>
      <trkpt lat="45.90486" lon="6.16499">
        <ele>591</ele>
        <time>2010-01-01T02:31:20Z</time>
      </trkpt>
      <trkpt lat="45.90474" lon="6.16481">
        <ele>584</ele>
        <time>2010-01-01T02:31:27Z</time>
      </trkpt>
      <trkpt lat="45.90469" lon="6.16471">
        <ele>580</ele>
        <time>2010-01-01T02:31:30Z</time>
      </trkpt>
      <trkpt lat="45.90469" lon="6.16469">
        <ele>579</ele>
        <time>2010-01-01T02:31:31Z</time>
      </trkpt>
      <trkpt lat="45.9043" lon="6.16447">
        <ele>573</ele>
        <time>2010-01-01T02:31:48Z</time>
      </trkpt>
      <trkpt lat="45.90432" lon="6.16441">
        <ele>570</ele>
        <time>2010-01-01T02:31:49Z</time>
      </trkpt>
      <trkpt lat="45.90475" lon="6.16443">
        <ele>567</ele>
        <time>2010-01-01T02:32:07Z</time>
      </trkpt>
      <trkpt lat="45.90478" lon="6.16438">
        <ele>565</ele>
        <time>2010-01-01T02:32:09Z</time>
      </trkpt>
      <trkpt lat="45.90448" lon="6.16421">
        <ele>559</ele>
        <time>2010-01-01T02:32:22Z</time>
      </trkpt>
      <trkpt lat="45.90483" lon="6.1641">
        <ele>552</ele>
        <time>2010-01-01T02:32:36Z</time>
      </trkpt>
      <trkpt lat="45.90525" lon="6.16416">
        <ele>553</ele>
        <time>2010-01-01T02:32:53Z</time>
      </trkpt>
      <trkpt lat="45.90568" lon="6.16467">
        <ele>570</ele>
        <time>2010-01-01T02:33:15Z</time>
      </trkpt>
      <trkpt lat="45.90609" lon="6.16503">
        <ele>582</ele>
        <time>2010-01-01T02:33:34Z</time>
      </trkpt>
      <trkpt lat="45.9062" lon="6.16501">
        <ele>580</ele>
        <time>2010-01-01T02:33:39Z</time>
      </trkpt>
      <trkpt lat="45.90646" lon="6.16519">
        <ele>587</ele>
        <time>2010-01-01T02:33:51Z</time>
      </trkpt>
      <trkpt lat="45.90683" lon="6.16556">
        <ele>602</ele>
        <time>2010-01-01T02:34:09Z</time>
      </trkpt>
      <trkpt lat="45.90703" lon="6.1657">
        <ele>607</ele>
        <time>2010-01-01T02:34:18Z</time>
      </trkpt>
      <trkpt lat="45.90728" lon="6.16591">
        <ele>615</ele>
        <time>2010-01-01T02:34:29Z</time>
      </trkpt>
      <trkpt lat="45.90746" lon="6.16608">
        <ele>627</ele>
        <time>2010-01-01T02:34:38Z</time>
      </trkpt>
      <trkpt lat="45.90761" lon="6.16609">
        <ele>626</ele>
        <time>2010-01-01T02:34:44Z</time>
      </trkpt>
      <trkpt lat="45.90771" lon="6.16603">
        <ele>619</ele>
        <time>2010-01-01T02:34:48Z</time>
      </trkpt>
      <trkpt lat="45.90862" lon="6.16624">
        <ele>619</ele>
        <time>2010-01-01T02:35:25Z</time>
      </trkpt>
      <trkpt lat="45.90899" lon="6.16635">
        <ele>615</ele>
        <time>2010-01-01T02:35:40Z</time>
      </trkpt>
      <trkpt lat="45.90973" lon="6.16636">
        <ele>604</ele>
        <time>2010-01-01T02:36:10Z</time>
      </trkpt>
      <trkpt lat="45.90971" lon="6.16629">
        <ele>601</ele>
        <time>2010-01-01T02:36:12Z</time>
      </trkpt>
      <trkpt lat="45.91003" lon="6.16622">
        <ele>595</ele>
        <time>2010-01-01T02:36:24Z</time>
      </trkpt>
      <trkpt lat="45.91015" lon="6.16632">
        <ele>598</ele>
        <time>2010-01-01T02:36:30Z</time>
      </trkpt>
      <trkpt lat="45.91034" lon="6.16634">
        <ele>598</ele>
        <time>2010-01-01T02:36:38Z</time>
      </trkpt>
      <trkpt lat="45.91072" lon="6.16651">
        <ele>601</ele>
        <time>2010-01-01T02:36:53Z</time>
      </trkpt>
      <trkpt lat="45.91109" lon="6.16651">
        <ele>599</ele>
        <time>2010-01-01T02:37:08Z</time>
      </trkpt>
      <trkpt lat="45.91154" lon="6.1664">
        <ele>593</ele>
        <time>2010-01-01T02:37:27Z</time>
      </trkpt>
      <trkpt lat="45.91175" lon="6.16641">
        <ele>593</ele>
        <time>2010-01-01T02:37:35Z</time>
      </trkpt>
      <trkpt lat="45.91171" lon="6.16635">
        <ele>591</ele>
        <time>2010-01-01T02:37:38Z</time>
      </trkpt>
      <trkpt lat="45.91247" lon="6.16613">
        <ele>582</ele>
        <time>2010-01-01T02:38:09Z</time>
      </trkpt>
      <trkpt lat="45.91279" lon="6.16548">
        <ele>563</ele>
        <time>2010-01-01T02:38:31Z</time>
      </trkpt>
      <trkpt lat="45.91281" lon="6.16524">
        <ele>556</ele>
        <time>2010-01-01T02:38:37Z</time>
      </trkpt>
      <trkpt lat="45.91285" lon="6.16514">
        <ele>554</ele>
        <time>2010-01-01T02:38:41Z</time>
      </trkpt>
      <trkpt lat="45.91284" lon="6.16514">
        <ele>554</ele>
        <time>2010-01-01T02:38:41Z</time>
      </trkpt>
      <trkpt lat="45.91278" lon="6.16489">
        <ele>548</ele>
        <time>2010-01-01T02:38:49Z</time>
      </trkpt>
      <trkpt lat="45.91287" lon="6.16478">
        <ele>546</ele>
        <time>2010-01-01T02:38:53Z</time>
      </trkpt>
      <trkpt lat="45.91292" lon="6.16475">
        <ele>545</ele>
        <time>2010-01-01T02:38:56Z</time>
      </trkpt>
      <trkpt lat="45.91301" lon="6.16359">
        <ele>525</ele>
        <time>2010-01-01T02:39:29Z</time>
      </trkpt>
      <trkpt lat="45.91348" lon="6.16304">
        <ele>519</ele>
        <time>2010-01-01T02:39:53Z</time>
      </trkpt>
      <trkpt lat="45.91406" lon="6.16311">
        <ele>521</ele>
        <time>2010-01-01T02:40:16Z</time>
      </trkpt>
      <trkpt lat="45.91512" lon="6.16304">
        <ele>525</ele>
        <time>2010-01-01T02:40:58Z</time>
      </trkpt>
      <trkpt lat="45.91558" lon="6.16314">
        <ele>528</ele>
        <time>2010-01-01T02:41:17Z</time>
      </trkpt>
      <trkpt lat="45.91591" lon="6.16338">
        <ele>532</ele>
        <time>2010-01-01T02:41:32Z</time>
      </trkpt>
      <trkpt lat="45.9164" lon="6.16358">
        <ele>536</ele>
        <time>2010-01-01T02:41:52Z</time>
      </trkpt>
      <trkpt lat="45.91674" lon="6.16367">
        <ele>539</ele>
        <time>2010-01-01T02:42:06Z</time>
      </trkpt>
      <trkpt lat="45.91727" lon="6.164">
        <ele>546</ele>
        <time>2010-01-01T02:42:29Z</time>
      </trkpt>
      <trkpt lat="45.91766" lon="6.16414">
        <ele>549</ele>
        <time>2010-01-01T02:42:45Z</time>
      </trkpt>
      <trkpt lat="45.91813" lon="6.16435">
        <ele>553</ele>
        <time>2010-01-01T02:43:05Z</time>
      </trkpt>
      <trkpt lat="45.91829" lon="6.16445">
        <ele>554</ele>
        <time>2010-01-01T02:43:12Z</time>
      </trkpt>
      <trkpt lat="45.9188" lon="6.16469">
        <ele>555</ele>
        <time>2010-01-01T02:43:33Z</time>
      </trkpt>
      <trkpt lat="45.9192" lon="6.1651">
        <ele>558</ele>
        <time>2010-01-01T02:43:53Z</time>
      </trkpt>
      <trkpt lat="45.91958" lon="6.16555">
        <ele>559</ele>
        <time>2010-01-01T02:44:13Z</time>
      </trkpt>
      <trkpt lat="45.92055" lon="6.16684">
        <ele>564</ele>
        <time>2010-01-01T02:45:06Z</time>
      </trkpt>
      <trkpt lat="45.92067" lon="6.16677">
        <ele>563</ele>
        <time>2010-01-01T02:45:11Z</time>
      </trkpt>
      <trkpt lat="45.92123" lon="6.16585">
        <ele>559</ele>
        <time>2010-01-01T02:45:45Z</time>
      </trkpt>
      <trkpt lat="45.92122" lon="6.16518">
        <ele>557</ele>
        <time>2010-01-01T02:46:03Z</time>
      </trkpt>
      <trkpt lat="45.92137" lon="6.16488">
        <ele>556</ele>
        <time>2010-01-01T02:46:14Z</time>
      </trkpt>
      <trkpt lat="45.92191" lon="6.16509">
        <ele>558</ele>
        <time>2010-01-01T02:46:36Z</time>
      </trkpt>
      <trkpt lat="45.92225" lon="6.16514">
        <ele>557</ele>
        <time>2010-01-01T02:46:50Z</time>
      </trkpt>
      <trkpt lat="45.9224" lon="6.16515">
        <ele>557</ele>
        <time>2010-01-01T02:46:56Z</time>
      </trkpt>
      <trkpt lat="45.9226" lon="6.1651">
        <ele>556</ele>
        <time>2010-01-01T02:47:04Z</time>
      </trkpt>
      <trkpt lat="45.92267" lon="6.16485">
        <ele>555</ele>
        <time>2010-01-01T02:47:12Z</time>
      </trkpt>
      <trkpt lat="45.92285" lon="6.16373">
        <ele>552</ele>
        <time>2010-01-01T02:47:44Z</time>
      </trkpt>
      <trkpt lat="45.92301" lon="6.16332">
        <ele>551</ele>
        <time>2010-01-01T02:47:57Z</time>
      </trkpt>
      <trkpt lat="45.9232" lon="6.16303">
        <ele>550</ele>
        <time>2010-01-01T02:48:08Z</time>
      </trkpt>
      <trkpt lat="45.9237" lon="6.1631">
        <ele>549</ele>
        <time>2010-01-01T02:48:28Z</time>
      </trkpt>
      <trkpt lat="45.92392" lon="6.16318">
        <ele>549</ele>
        <time>2010-01-01T02:48:37Z</time>
      </trkpt>
      <trkpt lat="45.92403" lon="6.16335">
        <ele>549</ele>
        <time>2010-01-01T02:48:43Z</time>
      </trkpt>
      <trkpt lat="45.92419" lon="6.16369">
        <ele>549</ele>
        <time>2010-01-01T02:48:55Z</time>
      </trkpt>
      <trkpt lat="45.92439" lon="6.16334">
        <ele>549</ele>
        <time>2010-01-01T02:49:07Z</time>
      </trkpt>
      <trkpt lat="45.92448" lon="6.16294">
        <ele>549</ele>
        <time>2010-01-01T02:49:19Z</time>
      </trkpt>
      <trkpt lat="45.92443" lon="6.16284">
        <ele>548</ele>
        <time>2010-01-01T02:49:22Z</time>
      </trkpt>
      <trkpt lat="45.92463" lon="6.16266">
        <ele>548</ele>
        <time>2010-01-01T02:49:31Z</time>
      </trkpt>
      <trkpt lat="45.92483" lon="6.16193">
        <ele>547</ele>
        <time>2010-01-01T02:49:53Z</time>
      </trkpt>
      <trkpt lat="45.92487" lon="6.16155">
        <ele>547</ele>
        <time>2010-01-01T02:50:04Z</time>
      </trkpt>
      <trkpt lat="45.92477" lon="6.1609">
        <ele>546</ele>
        <time>2010-01-01T02:50:23Z</time>
      </trkpt>
      <trkpt lat="45.92458" lon="6.16064">
        <ele>545</ele>
        <time>2010-01-01T02:50:33Z</time>
      </trkpt>
      <trkpt lat="45.92451" lon="6.16045">
        <ele>545</ele>
        <time>2010-01-01T02:50:39Z</time>
      </trkpt>
      <trkpt lat="45.92452" lon="6.15972">
        <ele>544</ele>
        <time>2010-01-01T02:50:59Z</time>
      </trkpt>
      <trkpt lat="45.92455" lon="6.1595">
        <ele>544</ele>
        <time>2010-01-01T02:51:06Z</time>
      </trkpt>
      <trkpt lat="45.92456" lon="6.15905">
        <ele>543</ele>
        <time>2010-01-01T02:51:18Z</time>
      </trkpt>
      <trkpt lat="45.92471" lon="6.15885">
        <ele>543</ele>
        <time>2010-01-01T02:51:26Z</time>
      </trkpt>
      <trkpt lat="45.92498" lon="6.1588">
        <ele>543</ele>
        <time>2010-01-01T02:51:37Z</time>
      </trkpt>
      <trkpt lat="45.92546" lon="6.15888">
        <ele>543</ele>
        <time>2010-01-01T02:51:56Z</time>
      </trkpt>
      <trkpt lat="45.92567" lon="6.159">
        <ele>544</ele>
        <time>2010-01-01T02:52:05Z</time>
      </trkpt>
      <trkpt lat="45.9258" lon="6.15855">
        <ele>543</ele>
        <time>2010-01-01T02:52:19Z</time>
      </trkpt>
      <trkpt lat="45.92591" lon="6.15828">
        <ele>542</ele>
        <time>2010-01-01T02:52:28Z</time>
      </trkpt>
      <trkpt lat="45.92623" lon="6.15815">
        <ele>542</ele>
        <time>2010-01-01T02:52:41Z</time>
      </trkpt>
      <trkpt lat="45.9265" lon="6.15817">
        <ele>542</ele>
        <time>2010-01-01T02:52:52Z</time>
      </trkpt>
      <trkpt lat="45.92676" lon="6.15801">
        <ele>542</ele>
        <time>2010-01-01T02:53:03Z</time>
      </trkpt>
      <trkpt lat="45.92689" lon="6.15755">
        <ele>541</ele>
        <time>2010-01-01T02:53:17Z</time>
      </trkpt>
      <trkpt lat="45.92688" lon="6.15728">
        <ele>540</ele>
        <time>2010-01-01T02:53:24Z</time>
      </trkpt>
      <trkpt lat="45.92715" lon="6.15674">
        <ele>539</ele>
        <time>2010-01-01T02:53:43Z</time>
      </trkpt>
      <trkpt lat="45.92668" lon="6.15548">
        <ele>538</ele>
        <time>2010-01-01T02:54:23Z</time>
      </trkpt>
      <trkpt lat="45.92617" lon="6.15625">
        <ele>539</ele>
        <time>2010-01-01T02:54:52Z</time>
      </trkpt>
    </trkseg>
  </trk>
</gpx>